<?xml version="1.0" encoding="UTF-8" standalone="no" ?>
<gpx xmlns="http://www.topografix.com/GPX/1/1" xmlns:xsi="http://www.w3.org/2001/XMLSchema-instance" xsi:schemaLocation="http://www.topografix.com/GPX/1/1 http://www.topografix.com/GPX/1/1/gpx.xsd" version="1.1" creator="VisuGPX - https://www.visugpx.com">
  <metadata>
    <name>Locronan:Forêt du Duc 04 MAR 2021 12:13</name>
    <desc><![CDATA[Départ Parking à l'entrée de Locronan(payant en été)rejoindre la place de l'église. Devant l'église, tourner à droite, repérer le balisage Bleu, et suivre le sentier montant vers le musée. passer devant, descendre la rte, puis tourner à droite dans un sentier qui passe au dessus du camping. Le chemin monte vers la rte qui mêne à la Chapelle Ar Sonj. Continuer tout droit, une maison à gauche le chemin s'enfonce dans le bois, chacun appréciera remarquable ou pas, en tous cas étrange. Suivre le tracé, plus de balisage jusque retrouver la rte que l'on descend à gauche, puis encore à gauche après la maison direction la Fontaine de Kergoat(souvent très humide). Quitter la piste pour rejoindre le village de Kergoat, prendre à gauche, balisage jaune, s'enfoncer dans la campagne, pour rejoindre Locronan en passant dans le passage sous voie, la chapelle bonne nouvelle, et regagner le parking.]]></desc>
  </metadata>
  <trk>
    <name><![CDATA[Locronan:Forêt du Duc 04 MAR 2021 12:13]]></name>
    <trkseg>
      <trkpt lat="48.09724" lon="-4.212">
        <ele>157.6</ele>
        <time>2021-03-04T11:13:46Z</time>
      </trkpt>
      <trkpt lat="48.09722" lon="-4.21187">
        <ele>154.81</ele>
        <time>2021-03-04T11:14:08Z</time>
      </trkpt>
      <trkpt lat="48.09725" lon="-4.21178">
        <ele>153.47</ele>
        <time>2021-03-04T11:14:15Z</time>
      </trkpt>
      <trkpt lat="48.09739" lon="-4.21154">
        <ele>148.93</ele>
        <time>2021-03-04T11:14:33Z</time>
      </trkpt>
      <trkpt lat="48.09741" lon="-4.21146">
        <ele>148.04</ele>
        <time>2021-03-04T11:14:37Z</time>
      </trkpt>
      <trkpt lat="48.09745" lon="-4.21101">
        <ele>144.75</ele>
        <time>2021-03-04T11:15:03Z</time>
      </trkpt>
      <trkpt lat="48.09749" lon="-4.21061">
        <ele>138.36</ele>
        <time>2021-03-04T11:15:26Z</time>
      </trkpt>
      <trkpt lat="48.0975" lon="-4.21021">
        <ele>132.56</ele>
        <time>2021-03-04T11:15:49Z</time>
      </trkpt>
      <trkpt lat="48.09752" lon="-4.21004">
        <ele>127.26</ele>
        <time>2021-03-04T11:16:01Z</time>
      </trkpt>
      <trkpt lat="48.09751" lon="-4.20955">
        <ele>128.68</ele>
        <time>2021-03-04T11:16:29Z</time>
      </trkpt>
      <trkpt lat="48.09731" lon="-4.20933">
        <ele>133.05</ele>
        <time>2021-03-04T11:16:49Z</time>
      </trkpt>
      <trkpt lat="48.09727" lon="-4.20932">
        <ele>135.1</ele>
        <time>2021-03-04T11:16:54Z</time>
      </trkpt>
      <trkpt lat="48.09724" lon="-4.20927">
        <ele>141.62</ele>
        <time>2021-03-04T11:17:12Z</time>
      </trkpt>
      <trkpt lat="48.0972" lon="-4.20932">
        <ele>143.44</ele>
        <time>2021-03-04T11:17:16Z</time>
      </trkpt>
      <trkpt lat="48.09717" lon="-4.20935">
        <ele>144.81</ele>
        <time>2021-03-04T11:17:19Z</time>
      </trkpt>
      <trkpt lat="48.09701" lon="-4.20936">
        <ele>148.46</ele>
        <time>2021-03-04T11:17:36Z</time>
      </trkpt>
      <trkpt lat="48.09698" lon="-4.20936">
        <ele>149.29</ele>
        <time>2021-03-04T11:17:39Z</time>
      </trkpt>
      <trkpt lat="48.09692" lon="-4.20936">
        <ele>150.23</ele>
        <time>2021-03-04T11:17:44Z</time>
      </trkpt>
      <trkpt lat="48.09676" lon="-4.20937">
        <ele>152.8</ele>
        <time>2021-03-04T11:18:00Z</time>
      </trkpt>
      <trkpt lat="48.09674" lon="-4.20917">
        <ele>153.71</ele>
        <time>2021-03-04T11:18:15Z</time>
      </trkpt>
      <trkpt lat="48.09671" lon="-4.20886">
        <ele>155.27</ele>
        <time>2021-03-04T11:18:37Z</time>
      </trkpt>
      <trkpt lat="48.09672" lon="-4.20871">
        <ele>155.7</ele>
        <time>2021-03-04T11:18:48Z</time>
      </trkpt>
      <trkpt lat="48.09671" lon="-4.20877">
        <ele>155.8</ele>
        <time>2021-03-04T11:18:53Z</time>
      </trkpt>
      <trkpt lat="48.09671" lon="-4.20882">
        <ele>156.02</ele>
        <time>2021-03-04T11:18:56Z</time>
      </trkpt>
      <trkpt lat="48.09658" lon="-4.20897">
        <ele>156.74</ele>
        <time>2021-03-04T11:19:10Z</time>
      </trkpt>
      <trkpt lat="48.09641" lon="-4.20915">
        <ele>158.63</ele>
        <time>2021-03-04T11:19:26Z</time>
      </trkpt>
      <trkpt lat="48.09638" lon="-4.20919">
        <ele>158.91</ele>
        <time>2021-03-04T11:19:30Z</time>
      </trkpt>
      <trkpt lat="48.09623" lon="-4.20929">
        <ele>160.5</ele>
        <time>2021-03-04T11:19:45Z</time>
      </trkpt>
      <trkpt lat="48.09606" lon="-4.2094">
        <ele>161.94</ele>
        <time>2021-03-04T11:20:06Z</time>
      </trkpt>
      <trkpt lat="48.09589" lon="-4.20951">
        <ele>162.41</ele>
        <time>2021-03-04T11:20:29Z</time>
      </trkpt>
      <trkpt lat="48.09567" lon="-4.20964">
        <ele>163.39</ele>
        <time>2021-03-04T11:20:55Z</time>
      </trkpt>
      <trkpt lat="48.09552" lon="-4.20965">
        <ele>164.08</ele>
        <time>2021-03-04T11:21:09Z</time>
      </trkpt>
      <trkpt lat="48.09543" lon="-4.20965">
        <ele>164.65</ele>
        <time>2021-03-04T11:21:19Z</time>
      </trkpt>
      <trkpt lat="48.0953" lon="-4.2097">
        <ele>165.75</ele>
        <time>2021-03-04T11:21:36Z</time>
      </trkpt>
      <trkpt lat="48.09515" lon="-4.2097">
        <ele>166.98</ele>
        <time>2021-03-04T11:21:52Z</time>
      </trkpt>
      <trkpt lat="48.09489" lon="-4.20965">
        <ele>168.56</ele>
        <time>2021-03-04T11:22:14Z</time>
      </trkpt>
      <trkpt lat="48.09474" lon="-4.20962">
        <ele>169.53</ele>
        <time>2021-03-04T11:22:24Z</time>
      </trkpt>
      <trkpt lat="48.09446" lon="-4.2095">
        <ele>173.15</ele>
        <time>2021-03-04T11:22:47Z</time>
      </trkpt>
      <trkpt lat="48.09424" lon="-4.20948">
        <ele>174.38</ele>
        <time>2021-03-04T11:23:09Z</time>
      </trkpt>
      <trkpt lat="48.094" lon="-4.20955">
        <ele>175</ele>
        <time>2021-03-04T11:23:27Z</time>
      </trkpt>
      <trkpt lat="48.09382" lon="-4.20962">
        <ele>176.76</ele>
        <time>2021-03-04T11:23:43Z</time>
      </trkpt>
      <trkpt lat="48.09373" lon="-4.20952">
        <ele>177.48</ele>
        <time>2021-03-04T11:23:58Z</time>
      </trkpt>
      <trkpt lat="48.09372" lon="-4.20939">
        <ele>178.04</ele>
        <time>2021-03-04T11:24:18Z</time>
      </trkpt>
      <trkpt lat="48.09375" lon="-4.20912">
        <ele>177.34</ele>
        <time>2021-03-04T11:24:44Z</time>
      </trkpt>
      <trkpt lat="48.09369" lon="-4.20888">
        <ele>177.74</ele>
        <time>2021-03-04T11:24:49Z</time>
      </trkpt>
      <trkpt lat="48.09372" lon="-4.20848">
        <ele>181.91</ele>
        <time>2021-03-04T11:25:12Z</time>
      </trkpt>
      <trkpt lat="48.09372" lon="-4.20844">
        <ele>182.8</ele>
        <time>2021-03-04T11:25:16Z</time>
      </trkpt>
      <trkpt lat="48.09373" lon="-4.20813">
        <ele>185.77</ele>
        <time>2021-03-04T11:25:39Z</time>
      </trkpt>
      <trkpt lat="48.09377" lon="-4.20794">
        <ele>187.58</ele>
        <time>2021-03-04T11:25:52Z</time>
      </trkpt>
      <trkpt lat="48.09382" lon="-4.20756">
        <ele>191.03</ele>
        <time>2021-03-04T11:26:12Z</time>
      </trkpt>
      <trkpt lat="48.09394" lon="-4.2075">
        <ele>194.37</ele>
        <time>2021-03-04T11:26:34Z</time>
      </trkpt>
      <trkpt lat="48.09409" lon="-4.20767">
        <ele>197.06</ele>
        <time>2021-03-04T11:26:50Z</time>
      </trkpt>
      <trkpt lat="48.09415" lon="-4.20772">
        <ele>197.67</ele>
        <time>2021-03-04T11:26:55Z</time>
      </trkpt>
      <trkpt lat="48.09444" lon="-4.208">
        <ele>196.76</ele>
        <time>2021-03-04T11:27:21Z</time>
      </trkpt>
      <trkpt lat="48.09462" lon="-4.2081">
        <ele>190.84</ele>
        <time>2021-03-04T11:27:38Z</time>
      </trkpt>
      <trkpt lat="48.09479" lon="-4.2082">
        <ele>183.15</ele>
        <time>2021-03-04T11:27:55Z</time>
      </trkpt>
      <trkpt lat="48.09487" lon="-4.2082">
        <ele>181.14</ele>
        <time>2021-03-04T11:28:01Z</time>
      </trkpt>
      <trkpt lat="48.09494" lon="-4.20815">
        <ele>177.88</ele>
        <time>2021-03-04T11:28:13Z</time>
      </trkpt>
      <trkpt lat="48.09501" lon="-4.20818">
        <ele>177.04</ele>
        <time>2021-03-04T11:28:20Z</time>
      </trkpt>
      <trkpt lat="48.09519" lon="-4.20824">
        <ele>175.79</ele>
        <time>2021-03-04T11:28:38Z</time>
      </trkpt>
      <trkpt lat="48.09522" lon="-4.20814">
        <ele>177.12</ele>
        <time>2021-03-04T11:28:59Z</time>
      </trkpt>
      <trkpt lat="48.09523" lon="-4.20812">
        <ele>177.18</ele>
        <time>2021-03-04T11:29:00Z</time>
      </trkpt>
      <trkpt lat="48.09534" lon="-4.20792">
        <ele>179.38</ele>
        <time>2021-03-04T11:29:17Z</time>
      </trkpt>
      <trkpt lat="48.09543" lon="-4.20776">
        <ele>181.05</ele>
        <time>2021-03-04T11:29:29Z</time>
      </trkpt>
      <trkpt lat="48.09555" lon="-4.20755">
        <ele>181.78</ele>
        <time>2021-03-04T11:29:45Z</time>
      </trkpt>
      <trkpt lat="48.09561" lon="-4.20743">
        <ele>181.2</ele>
        <time>2021-03-04T11:29:53Z</time>
      </trkpt>
      <trkpt lat="48.09567" lon="-4.20724">
        <ele>179.79</ele>
        <time>2021-03-04T11:30:04Z</time>
      </trkpt>
      <trkpt lat="48.09576" lon="-4.2071">
        <ele>179.96</ele>
        <time>2021-03-04T11:30:14Z</time>
      </trkpt>
      <trkpt lat="48.09579" lon="-4.20705">
        <ele>179.89</ele>
        <time>2021-03-04T11:30:18Z</time>
      </trkpt>
      <trkpt lat="48.0958" lon="-4.20702">
        <ele>179.45</ele>
        <time>2021-03-04T11:30:20Z</time>
      </trkpt>
      <trkpt lat="48.09601" lon="-4.2068">
        <ele>179.01</ele>
        <time>2021-03-04T11:30:38Z</time>
      </trkpt>
      <trkpt lat="48.09617" lon="-4.20677">
        <ele>181.66</ele>
        <time>2021-03-04T11:30:56Z</time>
      </trkpt>
      <trkpt lat="48.09618" lon="-4.20675">
        <ele>183.1</ele>
        <time>2021-03-04T11:31:33Z</time>
      </trkpt>
      <trkpt lat="48.09619" lon="-4.20672">
        <ele>183.22</ele>
        <time>2021-03-04T11:31:35Z</time>
      </trkpt>
      <trkpt lat="48.09626" lon="-4.20649">
        <ele>181.97</ele>
        <time>2021-03-04T11:31:50Z</time>
      </trkpt>
      <trkpt lat="48.09633" lon="-4.20626">
        <ele>180.08</ele>
        <time>2021-03-04T11:32:04Z</time>
      </trkpt>
      <trkpt lat="48.09641" lon="-4.2061">
        <ele>179.56</ele>
        <time>2021-03-04T11:32:15Z</time>
      </trkpt>
      <trkpt lat="48.09652" lon="-4.20599">
        <ele>174.43</ele>
        <time>2021-03-04T11:32:29Z</time>
      </trkpt>
      <trkpt lat="48.09671" lon="-4.20572">
        <ele>168.3</ele>
        <time>2021-03-04T11:32:52Z</time>
      </trkpt>
      <trkpt lat="48.0969" lon="-4.20553">
        <ele>163.9</ele>
        <time>2021-03-04T11:33:14Z</time>
      </trkpt>
      <trkpt lat="48.09692" lon="-4.20549">
        <ele>162.99</ele>
        <time>2021-03-04T11:33:17Z</time>
      </trkpt>
      <trkpt lat="48.09699" lon="-4.20518">
        <ele>160.18</ele>
        <time>2021-03-04T11:33:37Z</time>
      </trkpt>
      <trkpt lat="48.09694" lon="-4.20491">
        <ele>158.04</ele>
        <time>2021-03-04T11:33:59Z</time>
      </trkpt>
      <trkpt lat="48.09691" lon="-4.2047">
        <ele>155.44</ele>
        <time>2021-03-04T11:34:21Z</time>
      </trkpt>
      <trkpt lat="48.09698" lon="-4.2044">
        <ele>156.47</ele>
        <time>2021-03-04T11:34:42Z</time>
      </trkpt>
      <trkpt lat="48.09696" lon="-4.20429">
        <ele>157.64</ele>
        <time>2021-03-04T11:34:55Z</time>
      </trkpt>
      <trkpt lat="48.09696" lon="-4.20424">
        <ele>157.84</ele>
        <time>2021-03-04T11:35:01Z</time>
      </trkpt>
      <trkpt lat="48.09691" lon="-4.20413">
        <ele>158.17</ele>
        <time>2021-03-04T11:35:15Z</time>
      </trkpt>
      <trkpt lat="48.09693" lon="-4.20397">
        <ele>165.25</ele>
        <time>2021-03-04T11:35:33Z</time>
      </trkpt>
      <trkpt lat="48.0969" lon="-4.20376">
        <ele>172.38</ele>
        <time>2021-03-04T11:35:57Z</time>
      </trkpt>
      <trkpt lat="48.09683" lon="-4.20342">
        <ele>177.24</ele>
        <time>2021-03-04T11:36:20Z</time>
      </trkpt>
      <trkpt lat="48.09672" lon="-4.20307">
        <ele>182.05</ele>
        <time>2021-03-04T11:36:48Z</time>
      </trkpt>
      <trkpt lat="48.0966" lon="-4.20286">
        <ele>185.2</ele>
        <time>2021-03-04T11:37:06Z</time>
      </trkpt>
      <trkpt lat="48.09652" lon="-4.20273">
        <ele>187.35</ele>
        <time>2021-03-04T11:37:18Z</time>
      </trkpt>
      <trkpt lat="48.09637" lon="-4.20254">
        <ele>189.83</ele>
        <time>2021-03-04T11:37:36Z</time>
      </trkpt>
      <trkpt lat="48.09629" lon="-4.20232">
        <ele>192.69</ele>
        <time>2021-03-04T11:37:51Z</time>
      </trkpt>
      <trkpt lat="48.09616" lon="-4.2022">
        <ele>194.16</ele>
        <time>2021-03-04T11:38:05Z</time>
      </trkpt>
      <trkpt lat="48.09601" lon="-4.20194">
        <ele>197.53</ele>
        <time>2021-03-04T11:38:20Z</time>
      </trkpt>
      <trkpt lat="48.09584" lon="-4.20165">
        <ele>201.79</ele>
        <time>2021-03-04T11:38:39Z</time>
      </trkpt>
      <trkpt lat="48.09584" lon="-4.20165">
        <ele>201.97</ele>
        <time>2021-03-04T11:38:40Z</time>
      </trkpt>
      <trkpt lat="48.09569" lon="-4.20136">
        <ele>205.78</ele>
        <time>2021-03-04T11:39:01Z</time>
      </trkpt>
      <trkpt lat="48.09555" lon="-4.20104">
        <ele>209.4</ele>
        <time>2021-03-04T11:39:24Z</time>
      </trkpt>
      <trkpt lat="48.09538" lon="-4.20062">
        <ele>211.78</ele>
        <time>2021-03-04T11:39:44Z</time>
      </trkpt>
      <trkpt lat="48.09531" lon="-4.20047">
        <ele>213.47</ele>
        <time>2021-03-04T11:39:57Z</time>
      </trkpt>
      <trkpt lat="48.09518" lon="-4.20024">
        <ele>214.37</ele>
        <time>2021-03-04T11:40:15Z</time>
      </trkpt>
      <trkpt lat="48.095" lon="-4.19987">
        <ele>216.1</ele>
        <time>2021-03-04T11:40:41Z</time>
      </trkpt>
      <trkpt lat="48.09497" lon="-4.19977">
        <ele>216.48</ele>
        <time>2021-03-04T11:40:48Z</time>
      </trkpt>
      <trkpt lat="48.09484" lon="-4.19947">
        <ele>217.77</ele>
        <time>2021-03-04T11:41:05Z</time>
      </trkpt>
      <trkpt lat="48.09472" lon="-4.19911">
        <ele>219.07</ele>
        <time>2021-03-04T11:41:25Z</time>
      </trkpt>
      <trkpt lat="48.09477" lon="-4.19902">
        <ele>218.75</ele>
        <time>2021-03-04T11:41:31Z</time>
      </trkpt>
      <trkpt lat="48.09491" lon="-4.19877">
        <ele>219.47</ele>
        <time>2021-03-04T11:41:52Z</time>
      </trkpt>
      <trkpt lat="48.09501" lon="-4.19864">
        <ele>220.82</ele>
        <time>2021-03-04T11:42:09Z</time>
      </trkpt>
      <trkpt lat="48.09516" lon="-4.19854">
        <ele>221.15</ele>
        <time>2021-03-04T11:42:22Z</time>
      </trkpt>
      <trkpt lat="48.09539" lon="-4.19844">
        <ele>221.98</ele>
        <time>2021-03-04T11:42:41Z</time>
      </trkpt>
      <trkpt lat="48.09555" lon="-4.19821">
        <ele>221.58</ele>
        <time>2021-03-04T11:42:55Z</time>
      </trkpt>
      <trkpt lat="48.09565" lon="-4.19805">
        <ele>220.98</ele>
        <time>2021-03-04T11:43:05Z</time>
      </trkpt>
      <trkpt lat="48.09569" lon="-4.1978">
        <ele>220.96</ele>
        <time>2021-03-04T11:43:20Z</time>
      </trkpt>
      <trkpt lat="48.09577" lon="-4.19761">
        <ele>220.1</ele>
        <time>2021-03-04T11:43:37Z</time>
      </trkpt>
      <trkpt lat="48.09583" lon="-4.19744">
        <ele>221.75</ele>
        <time>2021-03-04T11:43:51Z</time>
      </trkpt>
      <trkpt lat="48.09587" lon="-4.19739">
        <ele>223.15</ele>
        <time>2021-03-04T11:44:02Z</time>
      </trkpt>
      <trkpt lat="48.09588" lon="-4.19738">
        <ele>223.28</ele>
        <time>2021-03-04T11:44:03Z</time>
      </trkpt>
      <trkpt lat="48.09593" lon="-4.19728">
        <ele>226.39</ele>
        <time>2021-03-04T11:44:18Z</time>
      </trkpt>
      <trkpt lat="48.09587" lon="-4.19704">
        <ele>227.65</ele>
        <time>2021-03-04T11:44:34Z</time>
      </trkpt>
      <trkpt lat="48.09589" lon="-4.19679">
        <ele>229.24</ele>
        <time>2021-03-04T11:44:53Z</time>
      </trkpt>
      <trkpt lat="48.09594" lon="-4.19662">
        <ele>230.7</ele>
        <time>2021-03-04T11:45:05Z</time>
      </trkpt>
      <trkpt lat="48.09586" lon="-4.19636">
        <ele>229.08</ele>
        <time>2021-03-04T11:45:23Z</time>
      </trkpt>
      <trkpt lat="48.09593" lon="-4.1962">
        <ele>229.2</ele>
        <time>2021-03-04T11:45:37Z</time>
      </trkpt>
      <trkpt lat="48.09597" lon="-4.19585">
        <ele>226.65</ele>
        <time>2021-03-04T11:46:03Z</time>
      </trkpt>
      <trkpt lat="48.096" lon="-4.19565">
        <ele>226.76</ele>
        <time>2021-03-04T11:46:22Z</time>
      </trkpt>
      <trkpt lat="48.09609" lon="-4.19532">
        <ele>224.26</ele>
        <time>2021-03-04T11:46:48Z</time>
      </trkpt>
      <trkpt lat="48.09617" lon="-4.19518">
        <ele>223.61</ele>
        <time>2021-03-04T11:47:03Z</time>
      </trkpt>
      <trkpt lat="48.09621" lon="-4.19497">
        <ele>223.06</ele>
        <time>2021-03-04T11:47:15Z</time>
      </trkpt>
      <trkpt lat="48.09615" lon="-4.19457">
        <ele>223.07</ele>
        <time>2021-03-04T11:47:40Z</time>
      </trkpt>
      <trkpt lat="48.09603" lon="-4.19434">
        <ele>223.02</ele>
        <time>2021-03-04T11:47:58Z</time>
      </trkpt>
      <trkpt lat="48.09596" lon="-4.19417">
        <ele>223.02</ele>
        <time>2021-03-04T11:48:11Z</time>
      </trkpt>
      <trkpt lat="48.09587" lon="-4.19398">
        <ele>223.18</ele>
        <time>2021-03-04T11:48:26Z</time>
      </trkpt>
      <trkpt lat="48.09579" lon="-4.19387">
        <ele>222.75</ele>
        <time>2021-03-04T11:48:54Z</time>
      </trkpt>
      <trkpt lat="48.09566" lon="-4.19364">
        <ele>222.88</ele>
        <time>2021-03-04T11:49:19Z</time>
      </trkpt>
      <trkpt lat="48.09556" lon="-4.19343">
        <ele>221.84</ele>
        <time>2021-03-04T11:49:48Z</time>
      </trkpt>
      <trkpt lat="48.09544" lon="-4.19317">
        <ele>221.86</ele>
        <time>2021-03-04T11:50:13Z</time>
      </trkpt>
      <trkpt lat="48.09531" lon="-4.19291">
        <ele>221.28</ele>
        <time>2021-03-04T11:50:35Z</time>
      </trkpt>
      <trkpt lat="48.09525" lon="-4.19263">
        <ele>221</ele>
        <time>2021-03-04T11:50:54Z</time>
      </trkpt>
      <trkpt lat="48.09526" lon="-4.19249">
        <ele>221.12</ele>
        <time>2021-03-04T11:50:59Z</time>
      </trkpt>
      <trkpt lat="48.09529" lon="-4.19243">
        <ele>221.24</ele>
        <time>2021-03-04T11:51:03Z</time>
      </trkpt>
      <trkpt lat="48.09537" lon="-4.19215">
        <ele>222.04</ele>
        <time>2021-03-04T11:51:22Z</time>
      </trkpt>
      <trkpt lat="48.09543" lon="-4.19181">
        <ele>221.51</ele>
        <time>2021-03-04T11:51:40Z</time>
      </trkpt>
      <trkpt lat="48.09549" lon="-4.19147">
        <ele>223.17</ele>
        <time>2021-03-04T11:52:00Z</time>
      </trkpt>
      <trkpt lat="48.09556" lon="-4.19115">
        <ele>225.21</ele>
        <time>2021-03-04T11:52:19Z</time>
      </trkpt>
      <trkpt lat="48.09565" lon="-4.19087">
        <ele>226.18</ele>
        <time>2021-03-04T11:52:37Z</time>
      </trkpt>
      <trkpt lat="48.09575" lon="-4.19054">
        <ele>227.23</ele>
        <time>2021-03-04T11:52:58Z</time>
      </trkpt>
      <trkpt lat="48.0958" lon="-4.19036">
        <ele>227.51</ele>
        <time>2021-03-04T11:53:14Z</time>
      </trkpt>
      <trkpt lat="48.09586" lon="-4.19009">
        <ele>225.51</ele>
        <time>2021-03-04T11:53:30Z</time>
      </trkpt>
      <trkpt lat="48.09593" lon="-4.18979">
        <ele>225.3</ele>
        <time>2021-03-04T11:53:47Z</time>
      </trkpt>
      <trkpt lat="48.09605" lon="-4.18945">
        <ele>230.3</ele>
        <time>2021-03-04T11:54:10Z</time>
      </trkpt>
      <trkpt lat="48.09614" lon="-4.18917">
        <ele>233.22</ele>
        <time>2021-03-04T11:54:29Z</time>
      </trkpt>
      <trkpt lat="48.09622" lon="-4.18892">
        <ele>231.82</ele>
        <time>2021-03-04T11:54:46Z</time>
      </trkpt>
      <trkpt lat="48.09626" lon="-4.18876">
        <ele>229</ele>
        <time>2021-03-04T11:54:57Z</time>
      </trkpt>
      <trkpt lat="48.09629" lon="-4.1887">
        <ele>228.96</ele>
        <time>2021-03-04T11:55:01Z</time>
      </trkpt>
      <trkpt lat="48.09631" lon="-4.18865">
        <ele>229.61</ele>
        <time>2021-03-04T11:55:04Z</time>
      </trkpt>
      <trkpt lat="48.09645" lon="-4.18839">
        <ele>230.49</ele>
        <time>2021-03-04T11:55:23Z</time>
      </trkpt>
      <trkpt lat="48.0966" lon="-4.18811">
        <ele>232.95</ele>
        <time>2021-03-04T11:55:43Z</time>
      </trkpt>
      <trkpt lat="48.0967" lon="-4.1879">
        <ele>232.69</ele>
        <time>2021-03-04T11:56:00Z</time>
      </trkpt>
      <trkpt lat="48.0968" lon="-4.18765">
        <ele>229.73</ele>
        <time>2021-03-04T11:56:18Z</time>
      </trkpt>
      <trkpt lat="48.09695" lon="-4.18739">
        <ele>230.27</ele>
        <time>2021-03-04T11:56:37Z</time>
      </trkpt>
      <trkpt lat="48.09702" lon="-4.1873">
        <ele>231.85</ele>
        <time>2021-03-04T11:56:45Z</time>
      </trkpt>
      <trkpt lat="48.0971" lon="-4.18729">
        <ele>234.36</ele>
        <time>2021-03-04T11:56:58Z</time>
      </trkpt>
      <trkpt lat="48.09711" lon="-4.18714">
        <ele>236.93</ele>
        <time>2021-03-04T11:57:17Z</time>
      </trkpt>
      <trkpt lat="48.09712" lon="-4.18694">
        <ele>238.02</ele>
        <time>2021-03-04T11:57:32Z</time>
      </trkpt>
      <trkpt lat="48.09714" lon="-4.18676">
        <ele>239.26</ele>
        <time>2021-03-04T11:57:54Z</time>
      </trkpt>
      <trkpt lat="48.09716" lon="-4.18675">
        <ele>240.65</ele>
        <time>2021-03-04T11:58:25Z</time>
      </trkpt>
      <trkpt lat="48.09717" lon="-4.1867">
        <ele>242.12</ele>
        <time>2021-03-04T11:58:51Z</time>
      </trkpt>
      <trkpt lat="48.09721" lon="-4.18667">
        <ele>244.85</ele>
        <time>2021-03-04T11:59:18Z</time>
      </trkpt>
      <trkpt lat="48.09725" lon="-4.18658">
        <ele>247.3</ele>
        <time>2021-03-04T11:59:43Z</time>
      </trkpt>
      <trkpt lat="48.09728" lon="-4.18626">
        <ele>248.36</ele>
        <time>2021-03-04T12:00:05Z</time>
      </trkpt>
      <trkpt lat="48.09735" lon="-4.18586">
        <ele>249.95</ele>
        <time>2021-03-04T12:00:32Z</time>
      </trkpt>
      <trkpt lat="48.09744" lon="-4.18557">
        <ele>251.65</ele>
        <time>2021-03-04T12:00:53Z</time>
      </trkpt>
      <trkpt lat="48.09753" lon="-4.18538">
        <ele>252.33</ele>
        <time>2021-03-04T12:01:08Z</time>
      </trkpt>
      <trkpt lat="48.09755" lon="-4.18536">
        <ele>252.58</ele>
        <time>2021-03-04T12:01:10Z</time>
      </trkpt>
      <trkpt lat="48.09768" lon="-4.18513">
        <ele>255.77</ele>
        <time>2021-03-04T12:01:27Z</time>
      </trkpt>
      <trkpt lat="48.09781" lon="-4.18494">
        <ele>258.49</ele>
        <time>2021-03-04T12:01:44Z</time>
      </trkpt>
      <trkpt lat="48.09793" lon="-4.18477">
        <ele>261.8</ele>
        <time>2021-03-04T12:02:01Z</time>
      </trkpt>
      <trkpt lat="48.09816" lon="-4.18446">
        <ele>265.23</ele>
        <time>2021-03-04T12:02:31Z</time>
      </trkpt>
      <trkpt lat="48.09819" lon="-4.18439">
        <ele>265.52</ele>
        <time>2021-03-04T12:02:36Z</time>
      </trkpt>
      <trkpt lat="48.09831" lon="-4.18417">
        <ele>266.87</ele>
        <time>2021-03-04T12:02:54Z</time>
      </trkpt>
      <trkpt lat="48.09838" lon="-4.18395">
        <ele>269.18</ele>
        <time>2021-03-04T12:03:08Z</time>
      </trkpt>
      <trkpt lat="48.09844" lon="-4.18379">
        <ele>271.13</ele>
        <time>2021-03-04T12:03:18Z</time>
      </trkpt>
      <trkpt lat="48.09854" lon="-4.18354">
        <ele>273.79</ele>
        <time>2021-03-04T12:03:34Z</time>
      </trkpt>
      <trkpt lat="48.09868" lon="-4.18324">
        <ele>276.03</ele>
        <time>2021-03-04T12:03:51Z</time>
      </trkpt>
      <trkpt lat="48.09872" lon="-4.18316">
        <ele>276.21</ele>
        <time>2021-03-04T12:04:08Z</time>
      </trkpt>
      <trkpt lat="48.09873" lon="-4.18309">
        <ele>273.31</ele>
        <time>2021-03-04T12:05:04Z</time>
      </trkpt>
      <trkpt lat="48.09878" lon="-4.1829">
        <ele>273.67</ele>
        <time>2021-03-04T12:05:16Z</time>
      </trkpt>
      <trkpt lat="48.09881" lon="-4.18259">
        <ele>273.45</ele>
        <time>2021-03-04T12:05:32Z</time>
      </trkpt>
      <trkpt lat="48.09888" lon="-4.18232">
        <ele>275.53</ele>
        <time>2021-03-04T12:05:47Z</time>
      </trkpt>
      <trkpt lat="48.09888" lon="-4.1823">
        <ele>275.76</ele>
        <time>2021-03-04T12:05:48Z</time>
      </trkpt>
      <trkpt lat="48.09889" lon="-4.18223">
        <ele>276.11</ele>
        <time>2021-03-04T12:05:52Z</time>
      </trkpt>
      <trkpt lat="48.09889" lon="-4.18196">
        <ele>278.34</ele>
        <time>2021-03-04T12:06:08Z</time>
      </trkpt>
      <trkpt lat="48.09888" lon="-4.18164">
        <ele>278.58</ele>
        <time>2021-03-04T12:06:26Z</time>
      </trkpt>
      <trkpt lat="48.09887" lon="-4.18133">
        <ele>279.79</ele>
        <time>2021-03-04T12:06:41Z</time>
      </trkpt>
      <trkpt lat="48.09888" lon="-4.18106">
        <ele>279.56</ele>
        <time>2021-03-04T12:06:54Z</time>
      </trkpt>
      <trkpt lat="48.09888" lon="-4.18096">
        <ele>280.17</ele>
        <time>2021-03-04T12:07:01Z</time>
      </trkpt>
      <trkpt lat="48.0989" lon="-4.1809">
        <ele>280.1</ele>
        <time>2021-03-04T12:07:05Z</time>
      </trkpt>
      <trkpt lat="48.09894" lon="-4.18062">
        <ele>280.19</ele>
        <time>2021-03-04T12:07:21Z</time>
      </trkpt>
      <trkpt lat="48.09895" lon="-4.18027">
        <ele>278.76</ele>
        <time>2021-03-04T12:07:39Z</time>
      </trkpt>
      <trkpt lat="48.09896" lon="-4.18014">
        <ele>278.21</ele>
        <time>2021-03-04T12:07:46Z</time>
      </trkpt>
      <trkpt lat="48.09897" lon="-4.18009">
        <ele>278.2</ele>
        <time>2021-03-04T12:07:49Z</time>
      </trkpt>
      <trkpt lat="48.099" lon="-4.17991">
        <ele>278.66</ele>
        <time>2021-03-04T12:08:04Z</time>
      </trkpt>
      <trkpt lat="48.09902" lon="-4.17978">
        <ele>278.82</ele>
        <time>2021-03-04T12:08:12Z</time>
      </trkpt>
      <trkpt lat="48.09904" lon="-4.17949">
        <ele>278.38</ele>
        <time>2021-03-04T12:08:30Z</time>
      </trkpt>
      <trkpt lat="48.09906" lon="-4.17935">
        <ele>279.1</ele>
        <time>2021-03-04T12:08:40Z</time>
      </trkpt>
      <trkpt lat="48.0991" lon="-4.1792">
        <ele>279.28</ele>
        <time>2021-03-04T12:08:46Z</time>
      </trkpt>
      <trkpt lat="48.0992" lon="-4.17896">
        <ele>278.47</ele>
        <time>2021-03-04T12:09:01Z</time>
      </trkpt>
      <trkpt lat="48.09926" lon="-4.17881">
        <ele>278.68</ele>
        <time>2021-03-04T12:09:12Z</time>
      </trkpt>
      <trkpt lat="48.09936" lon="-4.17851">
        <ele>279.65</ele>
        <time>2021-03-04T12:09:29Z</time>
      </trkpt>
      <trkpt lat="48.0994" lon="-4.17825">
        <ele>280.67</ele>
        <time>2021-03-04T12:09:42Z</time>
      </trkpt>
      <trkpt lat="48.09951" lon="-4.17807">
        <ele>281.25</ele>
        <time>2021-03-04T12:09:56Z</time>
      </trkpt>
      <trkpt lat="48.09959" lon="-4.1779">
        <ele>278.11</ele>
        <time>2021-03-04T12:10:09Z</time>
      </trkpt>
      <trkpt lat="48.0997" lon="-4.17768">
        <ele>275.26</ele>
        <time>2021-03-04T12:10:29Z</time>
      </trkpt>
      <trkpt lat="48.09979" lon="-4.17761">
        <ele>275.29</ele>
        <time>2021-03-04T12:10:43Z</time>
      </trkpt>
      <trkpt lat="48.09985" lon="-4.1776">
        <ele>275.41</ele>
        <time>2021-03-04T12:10:47Z</time>
      </trkpt>
      <trkpt lat="48.10007" lon="-4.17748">
        <ele>273.82</ele>
        <time>2021-03-04T12:10:59Z</time>
      </trkpt>
      <trkpt lat="48.10019" lon="-4.1773">
        <ele>271.74</ele>
        <time>2021-03-04T12:11:11Z</time>
      </trkpt>
      <trkpt lat="48.10023" lon="-4.17725">
        <ele>271</ele>
        <time>2021-03-04T12:11:15Z</time>
      </trkpt>
      <trkpt lat="48.1003" lon="-4.17698">
        <ele>269.21</ele>
        <time>2021-03-04T12:11:33Z</time>
      </trkpt>
      <trkpt lat="48.10034" lon="-4.17688">
        <ele>269.45</ele>
        <time>2021-03-04T12:11:49Z</time>
      </trkpt>
      <trkpt lat="48.10033" lon="-4.17666">
        <ele>270.04</ele>
        <time>2021-03-04T12:12:16Z</time>
      </trkpt>
      <trkpt lat="48.10056" lon="-4.1764">
        <ele>271.87</ele>
        <time>2021-03-04T12:12:40Z</time>
      </trkpt>
      <trkpt lat="48.10073" lon="-4.17613">
        <ele>272.39</ele>
        <time>2021-03-04T12:13:03Z</time>
      </trkpt>
      <trkpt lat="48.1008" lon="-4.17591">
        <ele>272.19</ele>
        <time>2021-03-04T12:13:21Z</time>
      </trkpt>
      <trkpt lat="48.10083" lon="-4.17567">
        <ele>271.13</ele>
        <time>2021-03-04T12:13:48Z</time>
      </trkpt>
      <trkpt lat="48.10087" lon="-4.17548">
        <ele>270.37</ele>
        <time>2021-03-04T12:14:08Z</time>
      </trkpt>
      <trkpt lat="48.10089" lon="-4.17528">
        <ele>270.43</ele>
        <time>2021-03-04T12:14:28Z</time>
      </trkpt>
      <trkpt lat="48.10094" lon="-4.17523">
        <ele>270.22</ele>
        <time>2021-03-04T12:14:35Z</time>
      </trkpt>
      <trkpt lat="48.10101" lon="-4.17506">
        <ele>269.97</ele>
        <time>2021-03-04T12:14:51Z</time>
      </trkpt>
      <trkpt lat="48.10112" lon="-4.17482">
        <ele>269.13</ele>
        <time>2021-03-04T12:15:13Z</time>
      </trkpt>
      <trkpt lat="48.10122" lon="-4.17459">
        <ele>268.69</ele>
        <time>2021-03-04T12:15:30Z</time>
      </trkpt>
      <trkpt lat="48.10129" lon="-4.17434">
        <ele>268.28</ele>
        <time>2021-03-04T12:15:56Z</time>
      </trkpt>
      <trkpt lat="48.1013" lon="-4.17406">
        <ele>266.24</ele>
        <time>2021-03-04T12:16:14Z</time>
      </trkpt>
      <trkpt lat="48.10132" lon="-4.17392">
        <ele>265.26</ele>
        <time>2021-03-04T12:16:23Z</time>
      </trkpt>
      <trkpt lat="48.10137" lon="-4.1738">
        <ele>263.24</ele>
        <time>2021-03-04T12:16:45Z</time>
      </trkpt>
      <trkpt lat="48.10137" lon="-4.17377">
        <ele>263.13</ele>
        <time>2021-03-04T12:16:49Z</time>
      </trkpt>
      <trkpt lat="48.10135" lon="-4.17351">
        <ele>262.93</ele>
        <time>2021-03-04T12:17:05Z</time>
      </trkpt>
      <trkpt lat="48.10132" lon="-4.17312">
        <ele>262.94</ele>
        <time>2021-03-04T12:17:28Z</time>
      </trkpt>
      <trkpt lat="48.10135" lon="-4.17296">
        <ele>262.91</ele>
        <time>2021-03-04T12:17:38Z</time>
      </trkpt>
      <trkpt lat="48.10135" lon="-4.1729">
        <ele>262.82</ele>
        <time>2021-03-04T12:17:41Z</time>
      </trkpt>
      <trkpt lat="48.10138" lon="-4.17281">
        <ele>262.86</ele>
        <time>2021-03-04T12:17:47Z</time>
      </trkpt>
      <trkpt lat="48.10137" lon="-4.17259">
        <ele>262.89</ele>
        <time>2021-03-04T12:18:05Z</time>
      </trkpt>
      <trkpt lat="48.10135" lon="-4.17231">
        <ele>262.66</ele>
        <time>2021-03-04T12:18:24Z</time>
      </trkpt>
      <trkpt lat="48.1014" lon="-4.17206">
        <ele>261.74</ele>
        <time>2021-03-04T12:18:42Z</time>
      </trkpt>
      <trkpt lat="48.10141" lon="-4.17187">
        <ele>261.43</ele>
        <time>2021-03-04T12:18:52Z</time>
      </trkpt>
      <trkpt lat="48.10147" lon="-4.17131">
        <ele>260.32</ele>
        <time>2021-03-04T12:19:24Z</time>
      </trkpt>
      <trkpt lat="48.10147" lon="-4.17124">
        <ele>260.41</ele>
        <time>2021-03-04T12:19:28Z</time>
      </trkpt>
      <trkpt lat="48.10152" lon="-4.17095">
        <ele>259.57</ele>
        <time>2021-03-04T12:19:47Z</time>
      </trkpt>
      <trkpt lat="48.1015" lon="-4.17067">
        <ele>259.19</ele>
        <time>2021-03-04T12:20:06Z</time>
      </trkpt>
      <trkpt lat="48.10142" lon="-4.17032">
        <ele>258.82</ele>
        <time>2021-03-04T12:20:28Z</time>
      </trkpt>
      <trkpt lat="48.10142" lon="-4.1703">
        <ele>258.84</ele>
        <time>2021-03-04T12:20:29Z</time>
      </trkpt>
      <trkpt lat="48.10144" lon="-4.1701">
        <ele>258.91</ele>
        <time>2021-03-04T12:20:41Z</time>
      </trkpt>
      <trkpt lat="48.10156" lon="-4.16968">
        <ele>259.15</ele>
        <time>2021-03-04T12:21:03Z</time>
      </trkpt>
      <trkpt lat="48.10157" lon="-4.16951">
        <ele>258.6</ele>
        <time>2021-03-04T12:21:15Z</time>
      </trkpt>
      <trkpt lat="48.10157" lon="-4.1693">
        <ele>257.94</ele>
        <time>2021-03-04T12:21:30Z</time>
      </trkpt>
      <trkpt lat="48.10163" lon="-4.16904">
        <ele>256.01</ele>
        <time>2021-03-04T12:21:54Z</time>
      </trkpt>
      <trkpt lat="48.10162" lon="-4.16876">
        <ele>254.85</ele>
        <time>2021-03-04T12:22:07Z</time>
      </trkpt>
      <trkpt lat="48.10166" lon="-4.16846">
        <ele>254.05</ele>
        <time>2021-03-04T12:22:21Z</time>
      </trkpt>
      <trkpt lat="48.10166" lon="-4.16834">
        <ele>254.07</ele>
        <time>2021-03-04T12:22:29Z</time>
      </trkpt>
      <trkpt lat="48.10166" lon="-4.16829">
        <ele>254.03</ele>
        <time>2021-03-04T12:22:33Z</time>
      </trkpt>
      <trkpt lat="48.10165" lon="-4.16826">
        <ele>254.14</ele>
        <time>2021-03-04T12:22:35Z</time>
      </trkpt>
      <trkpt lat="48.10167" lon="-4.16818">
        <ele>254.32</ele>
        <time>2021-03-04T12:22:40Z</time>
      </trkpt>
      <trkpt lat="48.10179" lon="-4.16806">
        <ele>254.84</ele>
        <time>2021-03-04T12:23:22Z</time>
      </trkpt>
      <trkpt lat="48.10193" lon="-4.16797">
        <ele>254.96</ele>
        <time>2021-03-04T12:23:36Z</time>
      </trkpt>
      <trkpt lat="48.10204" lon="-4.16794">
        <ele>255.74</ele>
        <time>2021-03-04T12:23:48Z</time>
      </trkpt>
      <trkpt lat="48.10222" lon="-4.16793">
        <ele>256.38</ele>
        <time>2021-03-04T12:24:03Z</time>
      </trkpt>
      <trkpt lat="48.10232" lon="-4.16797">
        <ele>256.64</ele>
        <time>2021-03-04T12:24:10Z</time>
      </trkpt>
      <trkpt lat="48.10249" lon="-4.1681">
        <ele>257.16</ele>
        <time>2021-03-04T12:24:26Z</time>
      </trkpt>
      <trkpt lat="48.10259" lon="-4.16814">
        <ele>258.25</ele>
        <time>2021-03-04T12:24:39Z</time>
      </trkpt>
      <trkpt lat="48.10273" lon="-4.16816">
        <ele>258.79</ele>
        <time>2021-03-04T12:24:50Z</time>
      </trkpt>
      <trkpt lat="48.10283" lon="-4.16816">
        <ele>258.37</ele>
        <time>2021-03-04T12:24:59Z</time>
      </trkpt>
      <trkpt lat="48.10301" lon="-4.16815">
        <ele>258.58</ele>
        <time>2021-03-04T12:25:15Z</time>
      </trkpt>
      <trkpt lat="48.10306" lon="-4.16813">
        <ele>261.71</ele>
        <time>2021-03-04T12:26:12Z</time>
      </trkpt>
      <trkpt lat="48.10327" lon="-4.16815">
        <ele>260.72</ele>
        <time>2021-03-04T12:26:28Z</time>
      </trkpt>
      <trkpt lat="48.10352" lon="-4.16816">
        <ele>257.13</ele>
        <time>2021-03-04T12:26:52Z</time>
      </trkpt>
      <trkpt lat="48.10356" lon="-4.16802">
        <ele>254</ele>
        <time>2021-03-04T12:27:05Z</time>
      </trkpt>
      <trkpt lat="48.1036" lon="-4.16754">
        <ele>248.12</ele>
        <time>2021-03-04T12:27:29Z</time>
      </trkpt>
      <trkpt lat="48.10362" lon="-4.16703">
        <ele>241.52</ele>
        <time>2021-03-04T12:27:56Z</time>
      </trkpt>
      <trkpt lat="48.10364" lon="-4.16665">
        <ele>236.28</ele>
        <time>2021-03-04T12:28:18Z</time>
      </trkpt>
      <trkpt lat="48.10363" lon="-4.16621">
        <ele>230.24</ele>
        <time>2021-03-04T12:28:40Z</time>
      </trkpt>
      <trkpt lat="48.10366" lon="-4.16584">
        <ele>225.05</ele>
        <time>2021-03-04T12:29:04Z</time>
      </trkpt>
      <trkpt lat="48.10366" lon="-4.16548">
        <ele>221.45</ele>
        <time>2021-03-04T12:29:26Z</time>
      </trkpt>
      <trkpt lat="48.10369" lon="-4.16518">
        <ele>219.39</ele>
        <time>2021-03-04T12:29:41Z</time>
      </trkpt>
      <trkpt lat="48.10374" lon="-4.16474">
        <ele>217.44</ele>
        <time>2021-03-04T12:30:04Z</time>
      </trkpt>
      <trkpt lat="48.10371" lon="-4.16474">
        <ele>214.99</ele>
        <time>2021-03-04T12:30:35Z</time>
      </trkpt>
      <trkpt lat="48.10371" lon="-4.16456">
        <ele>215.14</ele>
        <time>2021-03-04T12:30:51Z</time>
      </trkpt>
      <trkpt lat="48.10378" lon="-4.16423">
        <ele>215.64</ele>
        <time>2021-03-04T12:31:12Z</time>
      </trkpt>
      <trkpt lat="48.10382" lon="-4.16372">
        <ele>215.74</ele>
        <time>2021-03-04T12:31:38Z</time>
      </trkpt>
      <trkpt lat="48.10384" lon="-4.16334">
        <ele>215.76</ele>
        <time>2021-03-04T12:32:00Z</time>
      </trkpt>
      <trkpt lat="48.10387" lon="-4.16299">
        <ele>216.01</ele>
        <time>2021-03-04T12:32:20Z</time>
      </trkpt>
      <trkpt lat="48.1039" lon="-4.16258">
        <ele>215.5</ele>
        <time>2021-03-04T12:32:41Z</time>
      </trkpt>
      <trkpt lat="48.10391" lon="-4.1623">
        <ele>215.91</ele>
        <time>2021-03-04T12:32:58Z</time>
      </trkpt>
      <trkpt lat="48.10396" lon="-4.16225">
        <ele>217.14</ele>
        <time>2021-03-04T12:33:08Z</time>
      </trkpt>
      <trkpt lat="48.10404" lon="-4.16208">
        <ele>220.2</ele>
        <time>2021-03-04T12:33:29Z</time>
      </trkpt>
      <trkpt lat="48.10401" lon="-4.16197">
        <ele>220.32</ele>
        <time>2021-03-04T12:33:41Z</time>
      </trkpt>
      <trkpt lat="48.10398" lon="-4.16177">
        <ele>219.31</ele>
        <time>2021-03-04T12:33:56Z</time>
      </trkpt>
      <trkpt lat="48.10399" lon="-4.16167">
        <ele>219.05</ele>
        <time>2021-03-04T12:34:04Z</time>
      </trkpt>
      <trkpt lat="48.10401" lon="-4.1614">
        <ele>218.73</ele>
        <time>2021-03-04T12:34:20Z</time>
      </trkpt>
      <trkpt lat="48.10394" lon="-4.16094">
        <ele>218.07</ele>
        <time>2021-03-04T12:34:40Z</time>
      </trkpt>
      <trkpt lat="48.10393" lon="-4.1608">
        <ele>218.09</ele>
        <time>2021-03-04T12:34:50Z</time>
      </trkpt>
      <trkpt lat="48.10393" lon="-4.16042">
        <ele>218.13</ele>
        <time>2021-03-04T12:35:11Z</time>
      </trkpt>
      <trkpt lat="48.10393" lon="-4.16024">
        <ele>218.42</ele>
        <time>2021-03-04T12:35:19Z</time>
      </trkpt>
      <trkpt lat="48.10399" lon="-4.1598">
        <ele>218.22</ele>
        <time>2021-03-04T12:35:43Z</time>
      </trkpt>
      <trkpt lat="48.10395" lon="-4.15957">
        <ele>215.54</ele>
        <time>2021-03-04T12:36:13Z</time>
      </trkpt>
      <trkpt lat="48.10393" lon="-4.15942">
        <ele>215.77</ele>
        <time>2021-03-04T12:36:26Z</time>
      </trkpt>
      <trkpt lat="48.10383" lon="-4.1592">
        <ele>217.18</ele>
        <time>2021-03-04T12:36:41Z</time>
      </trkpt>
      <trkpt lat="48.10373" lon="-4.15905">
        <ele>219.49</ele>
        <time>2021-03-04T12:36:56Z</time>
      </trkpt>
      <trkpt lat="48.10367" lon="-4.15897">
        <ele>221.47</ele>
        <time>2021-03-04T12:37:09Z</time>
      </trkpt>
      <trkpt lat="48.10357" lon="-4.15871">
        <ele>222.76</ele>
        <time>2021-03-04T12:37:45Z</time>
      </trkpt>
      <trkpt lat="48.10338" lon="-4.15832">
        <ele>221.87</ele>
        <time>2021-03-04T12:38:15Z</time>
      </trkpt>
      <trkpt lat="48.10332" lon="-4.15809">
        <ele>221.51</ele>
        <time>2021-03-04T12:38:31Z</time>
      </trkpt>
      <trkpt lat="48.10327" lon="-4.15802">
        <ele>220.97</ele>
        <time>2021-03-04T12:38:41Z</time>
      </trkpt>
      <trkpt lat="48.10325" lon="-4.158">
        <ele>220.85</ele>
        <time>2021-03-04T12:38:44Z</time>
      </trkpt>
      <trkpt lat="48.10318" lon="-4.15796">
        <ele>220.13</ele>
        <time>2021-03-04T12:38:50Z</time>
      </trkpt>
      <trkpt lat="48.10308" lon="-4.15785">
        <ele>218.58</ele>
        <time>2021-03-04T12:39:06Z</time>
      </trkpt>
      <trkpt lat="48.10304" lon="-4.15769">
        <ele>217.75</ele>
        <time>2021-03-04T12:39:17Z</time>
      </trkpt>
      <trkpt lat="48.10292" lon="-4.15754">
        <ele>216.12</ele>
        <time>2021-03-04T12:39:32Z</time>
      </trkpt>
      <trkpt lat="48.1029" lon="-4.15744">
        <ele>214.27</ele>
        <time>2021-03-04T12:39:47Z</time>
      </trkpt>
      <trkpt lat="48.10292" lon="-4.1574">
        <ele>214.23</ele>
        <time>2021-03-04T12:39:54Z</time>
      </trkpt>
      <trkpt lat="48.10294" lon="-4.15724">
        <ele>213.57</ele>
        <time>2021-03-04T12:40:08Z</time>
      </trkpt>
      <trkpt lat="48.10289" lon="-4.15703">
        <ele>213.81</ele>
        <time>2021-03-04T12:40:24Z</time>
      </trkpt>
      <trkpt lat="48.10292" lon="-4.15686">
        <ele>213.97</ele>
        <time>2021-03-04T12:40:39Z</time>
      </trkpt>
      <trkpt lat="48.10299" lon="-4.15664">
        <ele>214.82</ele>
        <time>2021-03-04T12:40:55Z</time>
      </trkpt>
      <trkpt lat="48.10297" lon="-4.15646">
        <ele>214.62</ele>
        <time>2021-03-04T12:41:10Z</time>
      </trkpt>
      <trkpt lat="48.103" lon="-4.15617">
        <ele>214.99</ele>
        <time>2021-03-04T12:41:32Z</time>
      </trkpt>
      <trkpt lat="48.10299" lon="-4.15596">
        <ele>215.42</ele>
        <time>2021-03-04T12:41:47Z</time>
      </trkpt>
      <trkpt lat="48.10296" lon="-4.15582">
        <ele>215.82</ele>
        <time>2021-03-04T12:42:02Z</time>
      </trkpt>
      <trkpt lat="48.103" lon="-4.15545">
        <ele>216.45</ele>
        <time>2021-03-04T12:42:17Z</time>
      </trkpt>
      <trkpt lat="48.10301" lon="-4.15518">
        <ele>216.69</ele>
        <time>2021-03-04T12:42:30Z</time>
      </trkpt>
      <trkpt lat="48.103" lon="-4.15502">
        <ele>216.83</ele>
        <time>2021-03-04T12:42:42Z</time>
      </trkpt>
      <trkpt lat="48.10301" lon="-4.15471">
        <ele>216.98</ele>
        <time>2021-03-04T12:42:59Z</time>
      </trkpt>
      <trkpt lat="48.10298" lon="-4.15442">
        <ele>216.67</ele>
        <time>2021-03-04T12:43:16Z</time>
      </trkpt>
      <trkpt lat="48.10296" lon="-4.15416">
        <ele>217.04</ele>
        <time>2021-03-04T12:43:26Z</time>
      </trkpt>
      <trkpt lat="48.10292" lon="-4.15394">
        <ele>216.73</ele>
        <time>2021-03-04T12:43:39Z</time>
      </trkpt>
      <trkpt lat="48.10292" lon="-4.15382">
        <ele>216.99</ele>
        <time>2021-03-04T12:43:48Z</time>
      </trkpt>
      <trkpt lat="48.10293" lon="-4.15361">
        <ele>217.32</ele>
        <time>2021-03-04T12:44:03Z</time>
      </trkpt>
      <trkpt lat="48.10291" lon="-4.15335">
        <ele>216.91</ele>
        <time>2021-03-04T12:44:20Z</time>
      </trkpt>
      <trkpt lat="48.1029" lon="-4.15325">
        <ele>216.92</ele>
        <time>2021-03-04T12:44:24Z</time>
      </trkpt>
      <trkpt lat="48.10284" lon="-4.1531">
        <ele>217.11</ele>
        <time>2021-03-04T12:44:34Z</time>
      </trkpt>
      <trkpt lat="48.10282" lon="-4.1526">
        <ele>217.36</ele>
        <time>2021-03-04T12:44:51Z</time>
      </trkpt>
      <trkpt lat="48.10294" lon="-4.15227">
        <ele>215.71</ele>
        <time>2021-03-04T12:45:11Z</time>
      </trkpt>
      <trkpt lat="48.10302" lon="-4.15192">
        <ele>213.88</ele>
        <time>2021-03-04T12:45:33Z</time>
      </trkpt>
      <trkpt lat="48.10302" lon="-4.15146">
        <ele>212.2</ele>
        <time>2021-03-04T12:45:59Z</time>
      </trkpt>
      <trkpt lat="48.10296" lon="-4.15113">
        <ele>212.5</ele>
        <time>2021-03-04T12:46:18Z</time>
      </trkpt>
      <trkpt lat="48.10297" lon="-4.15094">
        <ele>213.08</ele>
        <time>2021-03-04T12:46:27Z</time>
      </trkpt>
      <trkpt lat="48.10293" lon="-4.15074">
        <ele>213.05</ele>
        <time>2021-03-04T12:46:36Z</time>
      </trkpt>
      <trkpt lat="48.10294" lon="-4.15044">
        <ele>213.91</ele>
        <time>2021-03-04T12:46:54Z</time>
      </trkpt>
      <trkpt lat="48.10297" lon="-4.15025">
        <ele>214.72</ele>
        <time>2021-03-04T12:47:06Z</time>
      </trkpt>
      <trkpt lat="48.10295" lon="-4.15007">
        <ele>215.8</ele>
        <time>2021-03-04T12:47:14Z</time>
      </trkpt>
      <trkpt lat="48.103" lon="-4.14961">
        <ele>217.8</ele>
        <time>2021-03-04T12:47:37Z</time>
      </trkpt>
      <trkpt lat="48.10302" lon="-4.14955">
        <ele>217.69</ele>
        <time>2021-03-04T12:47:39Z</time>
      </trkpt>
      <trkpt lat="48.10321" lon="-4.149">
        <ele>215.91</ele>
        <time>2021-03-04T12:48:05Z</time>
      </trkpt>
      <trkpt lat="48.10333" lon="-4.14848">
        <ele>213.61</ele>
        <time>2021-03-04T12:48:32Z</time>
      </trkpt>
      <trkpt lat="48.10335" lon="-4.14839">
        <ele>213.66</ele>
        <time>2021-03-04T12:48:37Z</time>
      </trkpt>
      <trkpt lat="48.1033" lon="-4.14803">
        <ele>213.88</ele>
        <time>2021-03-04T12:48:59Z</time>
      </trkpt>
      <trkpt lat="48.10334" lon="-4.14776">
        <ele>213.31</ele>
        <time>2021-03-04T12:49:10Z</time>
      </trkpt>
      <trkpt lat="48.10359" lon="-4.14744">
        <ele>212.1</ele>
        <time>2021-03-04T12:49:32Z</time>
      </trkpt>
      <trkpt lat="48.10364" lon="-4.14738">
        <ele>211.19</ele>
        <time>2021-03-04T12:49:36Z</time>
      </trkpt>
      <trkpt lat="48.10376" lon="-4.14723">
        <ele>209.44</ele>
        <time>2021-03-04T12:49:49Z</time>
      </trkpt>
      <trkpt lat="48.10377" lon="-4.14721">
        <ele>209.22</ele>
        <time>2021-03-04T12:49:52Z</time>
      </trkpt>
      <trkpt lat="48.10387" lon="-4.14709">
        <ele>206.88</ele>
        <time>2021-03-04T12:50:04Z</time>
      </trkpt>
      <trkpt lat="48.10387" lon="-4.14707">
        <ele>206.18</ele>
        <time>2021-03-04T12:50:05Z</time>
      </trkpt>
      <trkpt lat="48.1039" lon="-4.14696">
        <ele>203.31</ele>
        <time>2021-03-04T12:50:12Z</time>
      </trkpt>
      <trkpt lat="48.10392" lon="-4.14688">
        <ele>202.87</ele>
        <time>2021-03-04T12:50:15Z</time>
      </trkpt>
      <trkpt lat="48.10405" lon="-4.14672">
        <ele>200.21</ele>
        <time>2021-03-04T12:50:29Z</time>
      </trkpt>
      <trkpt lat="48.10409" lon="-4.14665">
        <ele>198.53</ele>
        <time>2021-03-04T12:50:34Z</time>
      </trkpt>
      <trkpt lat="48.1041" lon="-4.14661">
        <ele>197.82</ele>
        <time>2021-03-04T12:50:37Z</time>
      </trkpt>
      <trkpt lat="48.10429" lon="-4.14642">
        <ele>194.45</ele>
        <time>2021-03-04T12:50:51Z</time>
      </trkpt>
      <trkpt lat="48.1043" lon="-4.14641">
        <ele>194.19</ele>
        <time>2021-03-04T12:50:52Z</time>
      </trkpt>
      <trkpt lat="48.10434" lon="-4.14638">
        <ele>192.3</ele>
        <time>2021-03-04T12:50:56Z</time>
      </trkpt>
      <trkpt lat="48.1044" lon="-4.14632">
        <ele>191.05</ele>
        <time>2021-03-04T12:51:02Z</time>
      </trkpt>
      <trkpt lat="48.10441" lon="-4.14629">
        <ele>190.35</ele>
        <time>2021-03-04T12:51:04Z</time>
      </trkpt>
      <trkpt lat="48.10445" lon="-4.14625">
        <ele>189.99</ele>
        <time>2021-03-04T12:51:08Z</time>
      </trkpt>
      <trkpt lat="48.1045" lon="-4.14612">
        <ele>190.75</ele>
        <time>2021-03-04T12:51:21Z</time>
      </trkpt>
      <trkpt lat="48.10445" lon="-4.14595">
        <ele>192</ele>
        <time>2021-03-04T12:51:31Z</time>
      </trkpt>
      <trkpt lat="48.10472" lon="-4.14586">
        <ele>192.97</ele>
        <time>2021-03-04T12:51:48Z</time>
      </trkpt>
      <trkpt lat="48.10485" lon="-4.14578">
        <ele>191.56</ele>
        <time>2021-03-04T12:51:57Z</time>
      </trkpt>
      <trkpt lat="48.10494" lon="-4.14569">
        <ele>190.47</ele>
        <time>2021-03-04T12:52:06Z</time>
      </trkpt>
      <trkpt lat="48.10511" lon="-4.14556">
        <ele>189.75</ele>
        <time>2021-03-04T12:52:21Z</time>
      </trkpt>
      <trkpt lat="48.10512" lon="-4.14554">
        <ele>189.74</ele>
        <time>2021-03-04T12:52:23Z</time>
      </trkpt>
      <trkpt lat="48.10517" lon="-4.14555">
        <ele>189.17</ele>
        <time>2021-03-04T12:52:27Z</time>
      </trkpt>
      <trkpt lat="48.10522" lon="-4.14557">
        <ele>188.68</ele>
        <time>2021-03-04T12:52:33Z</time>
      </trkpt>
      <trkpt lat="48.10526" lon="-4.14556">
        <ele>188.2</ele>
        <time>2021-03-04T12:52:36Z</time>
      </trkpt>
      <trkpt lat="48.10545" lon="-4.14564">
        <ele>187.83</ele>
        <time>2021-03-04T12:52:52Z</time>
      </trkpt>
      <trkpt lat="48.10557" lon="-4.14576">
        <ele>187.36</ele>
        <time>2021-03-04T12:53:03Z</time>
      </trkpt>
      <trkpt lat="48.10567" lon="-4.14593">
        <ele>187.63</ele>
        <time>2021-03-04T12:53:16Z</time>
      </trkpt>
      <trkpt lat="48.10589" lon="-4.14623">
        <ele>188.82</ele>
        <time>2021-03-04T12:53:36Z</time>
      </trkpt>
      <trkpt lat="48.10594" lon="-4.14634">
        <ele>189.34</ele>
        <time>2021-03-04T12:53:43Z</time>
      </trkpt>
      <trkpt lat="48.10599" lon="-4.14641">
        <ele>190.55</ele>
        <time>2021-03-04T12:53:49Z</time>
      </trkpt>
      <trkpt lat="48.10603" lon="-4.14648">
        <ele>191.29</ele>
        <time>2021-03-04T12:53:53Z</time>
      </trkpt>
      <trkpt lat="48.1061" lon="-4.14661">
        <ele>192.44</ele>
        <time>2021-03-04T12:53:59Z</time>
      </trkpt>
      <trkpt lat="48.10618" lon="-4.14678">
        <ele>192.8</ele>
        <time>2021-03-04T12:54:09Z</time>
      </trkpt>
      <trkpt lat="48.10627" lon="-4.14697">
        <ele>193.77</ele>
        <time>2021-03-04T12:54:19Z</time>
      </trkpt>
      <trkpt lat="48.10632" lon="-4.14705">
        <ele>194.41</ele>
        <time>2021-03-04T12:54:22Z</time>
      </trkpt>
      <trkpt lat="48.1065" lon="-4.14725">
        <ele>197.91</ele>
        <time>2021-03-04T12:54:33Z</time>
      </trkpt>
      <trkpt lat="48.10656" lon="-4.14737">
        <ele>201.67</ele>
        <time>2021-03-04T12:54:45Z</time>
      </trkpt>
      <trkpt lat="48.10662" lon="-4.14742">
        <ele>205.33</ele>
        <time>2021-03-04T12:54:54Z</time>
      </trkpt>
      <trkpt lat="48.10669" lon="-4.14754">
        <ele>206.07</ele>
        <time>2021-03-04T12:55:02Z</time>
      </trkpt>
      <trkpt lat="48.10677" lon="-4.14757">
        <ele>206.11</ele>
        <time>2021-03-04T12:55:10Z</time>
      </trkpt>
      <trkpt lat="48.10686" lon="-4.1476">
        <ele>201.4</ele>
        <time>2021-03-04T12:55:22Z</time>
      </trkpt>
      <trkpt lat="48.10693" lon="-4.14763">
        <ele>196.98</ele>
        <time>2021-03-04T12:55:32Z</time>
      </trkpt>
      <trkpt lat="48.10698" lon="-4.14769">
        <ele>193.28</ele>
        <time>2021-03-04T12:55:37Z</time>
      </trkpt>
      <trkpt lat="48.10706" lon="-4.14791">
        <ele>182.9</ele>
        <time>2021-03-04T12:55:50Z</time>
      </trkpt>
      <trkpt lat="48.10715" lon="-4.14808">
        <ele>173.39</ele>
        <time>2021-03-04T12:56:06Z</time>
      </trkpt>
      <trkpt lat="48.10725" lon="-4.1483">
        <ele>164.38</ele>
        <time>2021-03-04T12:56:21Z</time>
      </trkpt>
      <trkpt lat="48.10729" lon="-4.14834">
        <ele>162.54</ele>
        <time>2021-03-04T12:56:24Z</time>
      </trkpt>
      <trkpt lat="48.10741" lon="-4.14857">
        <ele>154.76</ele>
        <time>2021-03-04T12:56:38Z</time>
      </trkpt>
      <trkpt lat="48.10752" lon="-4.14881">
        <ele>148.53</ele>
        <time>2021-03-04T12:56:53Z</time>
      </trkpt>
      <trkpt lat="48.10763" lon="-4.14914">
        <ele>142.4</ele>
        <time>2021-03-04T12:57:09Z</time>
      </trkpt>
      <trkpt lat="48.10786" lon="-4.14969">
        <ele>133.88</ele>
        <time>2021-03-04T12:57:34Z</time>
      </trkpt>
      <trkpt lat="48.10798" lon="-4.15">
        <ele>131.43</ele>
        <time>2021-03-04T12:57:50Z</time>
      </trkpt>
      <trkpt lat="48.10802" lon="-4.15017">
        <ele>129.56</ele>
        <time>2021-03-04T12:58:04Z</time>
      </trkpt>
      <trkpt lat="48.10819" lon="-4.15062">
        <ele>129.5</ele>
        <time>2021-03-04T12:58:27Z</time>
      </trkpt>
      <trkpt lat="48.10837" lon="-4.15101">
        <ele>129.06</ele>
        <time>2021-03-04T12:58:50Z</time>
      </trkpt>
      <trkpt lat="48.10848" lon="-4.15124">
        <ele>130.59</ele>
        <time>2021-03-04T12:59:08Z</time>
      </trkpt>
      <trkpt lat="48.10864" lon="-4.15157">
        <ele>131.99</ele>
        <time>2021-03-04T12:59:24Z</time>
      </trkpt>
      <trkpt lat="48.10875" lon="-4.15177">
        <ele>133.91</ele>
        <time>2021-03-04T12:59:35Z</time>
      </trkpt>
      <trkpt lat="48.10888" lon="-4.15208">
        <ele>136.62</ele>
        <time>2021-03-04T12:59:51Z</time>
      </trkpt>
      <trkpt lat="48.10902" lon="-4.15238">
        <ele>140.27</ele>
        <time>2021-03-04T13:00:06Z</time>
      </trkpt>
      <trkpt lat="48.10912" lon="-4.15262">
        <ele>144.32</ele>
        <time>2021-03-04T13:00:22Z</time>
      </trkpt>
      <trkpt lat="48.10925" lon="-4.15281">
        <ele>146.51</ele>
        <time>2021-03-04T13:00:35Z</time>
      </trkpt>
      <trkpt lat="48.10939" lon="-4.15295">
        <ele>150.29</ele>
        <time>2021-03-04T13:00:48Z</time>
      </trkpt>
      <trkpt lat="48.10962" lon="-4.15324">
        <ele>156.22</ele>
        <time>2021-03-04T13:01:04Z</time>
      </trkpt>
      <trkpt lat="48.10968" lon="-4.15332">
        <ele>159.48</ele>
        <time>2021-03-04T13:01:12Z</time>
      </trkpt>
      <trkpt lat="48.10976" lon="-4.1534">
        <ele>161.41</ele>
        <time>2021-03-04T13:01:18Z</time>
      </trkpt>
      <trkpt lat="48.10992" lon="-4.1536">
        <ele>165.67</ele>
        <time>2021-03-04T13:01:29Z</time>
      </trkpt>
      <trkpt lat="48.10999" lon="-4.15368">
        <ele>167.25</ele>
        <time>2021-03-04T13:01:33Z</time>
      </trkpt>
      <trkpt lat="48.11024" lon="-4.15398">
        <ele>173.69</ele>
        <time>2021-03-04T13:01:49Z</time>
      </trkpt>
      <trkpt lat="48.11037" lon="-4.1543">
        <ele>179.41</ele>
        <time>2021-03-04T13:02:03Z</time>
      </trkpt>
      <trkpt lat="48.1104" lon="-4.15436">
        <ele>180.9</ele>
        <time>2021-03-04T13:02:06Z</time>
      </trkpt>
      <trkpt lat="48.1105" lon="-4.15449">
        <ele>184.4</ele>
        <time>2021-03-04T13:02:13Z</time>
      </trkpt>
      <trkpt lat="48.11079" lon="-4.15481">
        <ele>194.06</ele>
        <time>2021-03-04T13:02:34Z</time>
      </trkpt>
      <trkpt lat="48.11107" lon="-4.15506">
        <ele>199.04</ele>
        <time>2021-03-04T13:02:52Z</time>
      </trkpt>
      <trkpt lat="48.11119" lon="-4.15524">
        <ele>202.18</ele>
        <time>2021-03-04T13:03:04Z</time>
      </trkpt>
      <trkpt lat="48.11123" lon="-4.15544">
        <ele>208.65</ele>
        <time>2021-03-04T13:03:18Z</time>
      </trkpt>
      <trkpt lat="48.11122" lon="-4.15545">
        <ele>209.2</ele>
        <time>2021-03-04T13:03:19Z</time>
      </trkpt>
      <trkpt lat="48.11122" lon="-4.15568">
        <ele>213.94</ele>
        <time>2021-03-04T13:03:30Z</time>
      </trkpt>
      <trkpt lat="48.11123" lon="-4.15587">
        <ele>216.42</ele>
        <time>2021-03-04T13:03:41Z</time>
      </trkpt>
      <trkpt lat="48.11125" lon="-4.15598">
        <ele>219.05</ele>
        <time>2021-03-04T13:03:48Z</time>
      </trkpt>
      <trkpt lat="48.11126" lon="-4.15614">
        <ele>222.56</ele>
        <time>2021-03-04T13:03:58Z</time>
      </trkpt>
      <trkpt lat="48.11128" lon="-4.15636">
        <ele>225.35</ele>
        <time>2021-03-04T13:04:11Z</time>
      </trkpt>
      <trkpt lat="48.11123" lon="-4.15661">
        <ele>222.57</ele>
        <time>2021-03-04T13:04:23Z</time>
      </trkpt>
      <trkpt lat="48.11113" lon="-4.15692">
        <ele>218.71</ele>
        <time>2021-03-04T13:04:40Z</time>
      </trkpt>
      <trkpt lat="48.11103" lon="-4.1572">
        <ele>210.54</ele>
        <time>2021-03-04T13:04:56Z</time>
      </trkpt>
      <trkpt lat="48.11088" lon="-4.15748">
        <ele>198.55</ele>
        <time>2021-03-04T13:05:13Z</time>
      </trkpt>
      <trkpt lat="48.11078" lon="-4.15771">
        <ele>190.03</ele>
        <time>2021-03-04T13:05:27Z</time>
      </trkpt>
      <trkpt lat="48.11076" lon="-4.1578">
        <ele>186.58</ele>
        <time>2021-03-04T13:05:32Z</time>
      </trkpt>
      <trkpt lat="48.11058" lon="-4.15809">
        <ele>167.89</ele>
        <time>2021-03-04T13:05:50Z</time>
      </trkpt>
      <trkpt lat="48.1105" lon="-4.15823">
        <ele>160.9</ele>
        <time>2021-03-04T13:06:05Z</time>
      </trkpt>
      <trkpt lat="48.11039" lon="-4.15856">
        <ele>152.81</ele>
        <time>2021-03-04T13:06:22Z</time>
      </trkpt>
      <trkpt lat="48.11038" lon="-4.15859">
        <ele>151.29</ele>
        <time>2021-03-04T13:06:24Z</time>
      </trkpt>
      <trkpt lat="48.11033" lon="-4.15869">
        <ele>145.98</ele>
        <time>2021-03-04T13:06:30Z</time>
      </trkpt>
      <trkpt lat="48.11004" lon="-4.15901">
        <ele>118.78</ele>
        <time>2021-03-04T13:06:49Z</time>
      </trkpt>
      <trkpt lat="48.11004" lon="-4.15929">
        <ele>111.31</ele>
        <time>2021-03-04T13:07:06Z</time>
      </trkpt>
      <trkpt lat="48.11003" lon="-4.15936">
        <ele>109.54</ele>
        <time>2021-03-04T13:07:10Z</time>
      </trkpt>
      <trkpt lat="48.10999" lon="-4.15955">
        <ele>106.3</ele>
        <time>2021-03-04T13:07:20Z</time>
      </trkpt>
      <trkpt lat="48.10995" lon="-4.15989">
        <ele>104.75</ele>
        <time>2021-03-04T13:07:36Z</time>
      </trkpt>
      <trkpt lat="48.10987" lon="-4.16016">
        <ele>102.93</ele>
        <time>2021-03-04T13:07:50Z</time>
      </trkpt>
      <trkpt lat="48.10983" lon="-4.16025">
        <ele>102.1</ele>
        <time>2021-03-04T13:07:55Z</time>
      </trkpt>
      <trkpt lat="48.10978" lon="-4.16036">
        <ele>100.08</ele>
        <time>2021-03-04T13:08:04Z</time>
      </trkpt>
      <trkpt lat="48.10975" lon="-4.16046">
        <ele>98.72</ele>
        <time>2021-03-04T13:08:11Z</time>
      </trkpt>
      <trkpt lat="48.10968" lon="-4.16058">
        <ele>97.4</ele>
        <time>2021-03-04T13:08:17Z</time>
      </trkpt>
      <trkpt lat="48.10968" lon="-4.16072">
        <ele>96.16</ele>
        <time>2021-03-04T13:08:27Z</time>
      </trkpt>
      <trkpt lat="48.10967" lon="-4.16085">
        <ele>94.3</ele>
        <time>2021-03-04T13:08:37Z</time>
      </trkpt>
      <trkpt lat="48.10963" lon="-4.16101">
        <ele>92.95</ele>
        <time>2021-03-04T13:08:47Z</time>
      </trkpt>
      <trkpt lat="48.10949" lon="-4.1615">
        <ele>93.32</ele>
        <time>2021-03-04T13:09:08Z</time>
      </trkpt>
      <trkpt lat="48.1095" lon="-4.16177">
        <ele>91.45</ele>
        <time>2021-03-04T13:09:28Z</time>
      </trkpt>
      <trkpt lat="48.10944" lon="-4.16217">
        <ele>90.04</ele>
        <time>2021-03-04T13:09:51Z</time>
      </trkpt>
      <trkpt lat="48.1094" lon="-4.16243">
        <ele>90.04</ele>
        <time>2021-03-04T13:10:06Z</time>
      </trkpt>
      <trkpt lat="48.10932" lon="-4.16291">
        <ele>96.2</ele>
        <time>2021-03-04T13:10:29Z</time>
      </trkpt>
      <trkpt lat="48.10919" lon="-4.1634">
        <ele>98.32</ele>
        <time>2021-03-04T13:10:55Z</time>
      </trkpt>
      <trkpt lat="48.10907" lon="-4.16393">
        <ele>100.51</ele>
        <time>2021-03-04T13:11:23Z</time>
      </trkpt>
      <trkpt lat="48.10898" lon="-4.16429">
        <ele>100.5</ele>
        <time>2021-03-04T13:11:45Z</time>
      </trkpt>
      <trkpt lat="48.10886" lon="-4.16471">
        <ele>101.17</ele>
        <time>2021-03-04T13:12:09Z</time>
      </trkpt>
      <trkpt lat="48.10877" lon="-4.16514">
        <ele>103.41</ele>
        <time>2021-03-04T13:12:30Z</time>
      </trkpt>
      <trkpt lat="48.10871" lon="-4.16553">
        <ele>105.61</ele>
        <time>2021-03-04T13:12:51Z</time>
      </trkpt>
      <trkpt lat="48.10875" lon="-4.16572">
        <ele>106.16</ele>
        <time>2021-03-04T13:13:04Z</time>
      </trkpt>
      <trkpt lat="48.10874" lon="-4.16589">
        <ele>107.19</ele>
        <time>2021-03-04T13:13:11Z</time>
      </trkpt>
      <trkpt lat="48.10875" lon="-4.16614">
        <ele>109.45</ele>
        <time>2021-03-04T13:13:26Z</time>
      </trkpt>
      <trkpt lat="48.10878" lon="-4.16638">
        <ele>110.93</ele>
        <time>2021-03-04T13:13:41Z</time>
      </trkpt>
      <trkpt lat="48.10879" lon="-4.16664">
        <ele>113.06</ele>
        <time>2021-03-04T13:13:56Z</time>
      </trkpt>
      <trkpt lat="48.1088" lon="-4.16672">
        <ele>113.64</ele>
        <time>2021-03-04T13:14:00Z</time>
      </trkpt>
      <trkpt lat="48.10881" lon="-4.1668">
        <ele>114.5</ele>
        <time>2021-03-04T13:14:05Z</time>
      </trkpt>
      <trkpt lat="48.10882" lon="-4.16697">
        <ele>116.96</ele>
        <time>2021-03-04T13:14:16Z</time>
      </trkpt>
      <trkpt lat="48.10883" lon="-4.16709">
        <ele>119.38</ele>
        <time>2021-03-04T13:14:24Z</time>
      </trkpt>
      <trkpt lat="48.10883" lon="-4.16739">
        <ele>123.37</ele>
        <time>2021-03-04T13:14:43Z</time>
      </trkpt>
      <trkpt lat="48.1088" lon="-4.16774">
        <ele>124.71</ele>
        <time>2021-03-04T13:15:05Z</time>
      </trkpt>
      <trkpt lat="48.1088" lon="-4.16782">
        <ele>124.95</ele>
        <time>2021-03-04T13:15:10Z</time>
      </trkpt>
      <trkpt lat="48.1088" lon="-4.16805">
        <ele>128.28</ele>
        <time>2021-03-04T13:15:25Z</time>
      </trkpt>
      <trkpt lat="48.10881" lon="-4.16816">
        <ele>129.98</ele>
        <time>2021-03-04T13:15:32Z</time>
      </trkpt>
      <trkpt lat="48.10881" lon="-4.16825">
        <ele>132.1</ele>
        <time>2021-03-04T13:15:41Z</time>
      </trkpt>
      <trkpt lat="48.10881" lon="-4.16826">
        <ele>132.29</ele>
        <time>2021-03-04T13:15:42Z</time>
      </trkpt>
      <trkpt lat="48.10879" lon="-4.16852">
        <ele>133.6</ele>
        <time>2021-03-04T13:15:58Z</time>
      </trkpt>
      <trkpt lat="48.10881" lon="-4.16862">
        <ele>135.84</ele>
        <time>2021-03-04T13:16:07Z</time>
      </trkpt>
      <trkpt lat="48.10881" lon="-4.16875">
        <ele>138.88</ele>
        <time>2021-03-04T13:16:18Z</time>
      </trkpt>
      <trkpt lat="48.10881" lon="-4.16881">
        <ele>140.13</ele>
        <time>2021-03-04T13:16:22Z</time>
      </trkpt>
      <trkpt lat="48.10883" lon="-4.16901">
        <ele>142.53</ele>
        <time>2021-03-04T13:16:31Z</time>
      </trkpt>
      <trkpt lat="48.1086" lon="-4.16919">
        <ele>139.47</ele>
        <time>2021-03-04T13:16:45Z</time>
      </trkpt>
      <trkpt lat="48.10855" lon="-4.16941">
        <ele>138.47</ele>
        <time>2021-03-04T13:17:01Z</time>
      </trkpt>
      <trkpt lat="48.10854" lon="-4.16947">
        <ele>137.99</ele>
        <time>2021-03-04T13:17:05Z</time>
      </trkpt>
      <trkpt lat="48.10843" lon="-4.16996">
        <ele>138.05</ele>
        <time>2021-03-04T13:17:38Z</time>
      </trkpt>
      <trkpt lat="48.10839" lon="-4.17021">
        <ele>139.21</ele>
        <time>2021-03-04T13:17:55Z</time>
      </trkpt>
      <trkpt lat="48.10838" lon="-4.17033">
        <ele>140.24</ele>
        <time>2021-03-04T13:18:05Z</time>
      </trkpt>
      <trkpt lat="48.10829" lon="-4.17044">
        <ele>138.37</ele>
        <time>2021-03-04T13:18:25Z</time>
      </trkpt>
      <trkpt lat="48.10829" lon="-4.17049">
        <ele>136.07</ele>
        <time>2021-03-04T13:19:02Z</time>
      </trkpt>
      <trkpt lat="48.10833" lon="-4.17069">
        <ele>131.54</ele>
        <time>2021-03-04T13:19:30Z</time>
      </trkpt>
      <trkpt lat="48.10836" lon="-4.17076">
        <ele>128.27</ele>
        <time>2021-03-04T13:19:51Z</time>
      </trkpt>
      <trkpt lat="48.1084" lon="-4.17076">
        <ele>129.13</ele>
        <time>2021-03-04T13:20:02Z</time>
      </trkpt>
      <trkpt lat="48.10855" lon="-4.17087">
        <ele>130.48</ele>
        <time>2021-03-04T13:20:19Z</time>
      </trkpt>
      <trkpt lat="48.10882" lon="-4.17108">
        <ele>132.48</ele>
        <time>2021-03-04T13:20:46Z</time>
      </trkpt>
      <trkpt lat="48.1091" lon="-4.17128">
        <ele>131.88</ele>
        <time>2021-03-04T13:21:11Z</time>
      </trkpt>
      <trkpt lat="48.10934" lon="-4.17144">
        <ele>130.2</ele>
        <time>2021-03-04T13:21:29Z</time>
      </trkpt>
      <trkpt lat="48.1094" lon="-4.17142">
        <ele>129.64</ele>
        <time>2021-03-04T13:21:43Z</time>
      </trkpt>
      <trkpt lat="48.10948" lon="-4.17134">
        <ele>129.53</ele>
        <time>2021-03-04T13:21:51Z</time>
      </trkpt>
      <trkpt lat="48.10961" lon="-4.17111">
        <ele>128.65</ele>
        <time>2021-03-04T13:22:09Z</time>
      </trkpt>
      <trkpt lat="48.10982" lon="-4.17078">
        <ele>129.69</ele>
        <time>2021-03-04T13:22:38Z</time>
      </trkpt>
      <trkpt lat="48.10992" lon="-4.17052">
        <ele>129.18</ele>
        <time>2021-03-04T13:22:52Z</time>
      </trkpt>
      <trkpt lat="48.10995" lon="-4.17049">
        <ele>129.09</ele>
        <time>2021-03-04T13:23:15Z</time>
      </trkpt>
      <trkpt lat="48.11001" lon="-4.17043">
        <ele>129.52</ele>
        <time>2021-03-04T13:23:21Z</time>
      </trkpt>
      <trkpt lat="48.11021" lon="-4.17028">
        <ele>130.63</ele>
        <time>2021-03-04T13:23:39Z</time>
      </trkpt>
      <trkpt lat="48.11042" lon="-4.17023">
        <ele>130.4</ele>
        <time>2021-03-04T13:23:55Z</time>
      </trkpt>
      <trkpt lat="48.11046" lon="-4.17022">
        <ele>129.87</ele>
        <time>2021-03-04T13:23:58Z</time>
      </trkpt>
      <trkpt lat="48.1105" lon="-4.17024">
        <ele>129.88</ele>
        <time>2021-03-04T13:24:01Z</time>
      </trkpt>
      <trkpt lat="48.11066" lon="-4.17026">
        <ele>129.58</ele>
        <time>2021-03-04T13:24:13Z</time>
      </trkpt>
      <trkpt lat="48.11086" lon="-4.17036">
        <ele>129.82</ele>
        <time>2021-03-04T13:24:31Z</time>
      </trkpt>
      <trkpt lat="48.11101" lon="-4.17046">
        <ele>128.79</ele>
        <time>2021-03-04T13:24:44Z</time>
      </trkpt>
      <trkpt lat="48.11105" lon="-4.17048">
        <ele>129.31</ele>
        <time>2021-03-04T13:24:49Z</time>
      </trkpt>
      <trkpt lat="48.11132" lon="-4.17063">
        <ele>130.34</ele>
        <time>2021-03-04T13:25:09Z</time>
      </trkpt>
      <trkpt lat="48.11154" lon="-4.17075">
        <ele>129.72</ele>
        <time>2021-03-04T13:25:27Z</time>
      </trkpt>
      <trkpt lat="48.11176" lon="-4.17087">
        <ele>130.08</ele>
        <time>2021-03-04T13:25:44Z</time>
      </trkpt>
      <trkpt lat="48.11186" lon="-4.17092">
        <ele>130.67</ele>
        <time>2021-03-04T13:25:52Z</time>
      </trkpt>
      <trkpt lat="48.11207" lon="-4.17103">
        <ele>134.65</ele>
        <time>2021-03-04T13:26:08Z</time>
      </trkpt>
      <trkpt lat="48.11227" lon="-4.17113">
        <ele>136.33</ele>
        <time>2021-03-04T13:26:24Z</time>
      </trkpt>
      <trkpt lat="48.11254" lon="-4.17127">
        <ele>137.9</ele>
        <time>2021-03-04T13:26:42Z</time>
      </trkpt>
      <trkpt lat="48.11264" lon="-4.17132">
        <ele>140.79</ele>
        <time>2021-03-04T13:26:52Z</time>
      </trkpt>
      <trkpt lat="48.11289" lon="-4.17147">
        <ele>141.03</ele>
        <time>2021-03-04T13:27:09Z</time>
      </trkpt>
      <trkpt lat="48.11308" lon="-4.17133">
        <ele>138.7</ele>
        <time>2021-03-04T13:27:26Z</time>
      </trkpt>
      <trkpt lat="48.11316" lon="-4.17112">
        <ele>134.05</ele>
        <time>2021-03-04T13:27:40Z</time>
      </trkpt>
      <trkpt lat="48.1133" lon="-4.17084">
        <ele>130.27</ele>
        <time>2021-03-04T13:27:57Z</time>
      </trkpt>
      <trkpt lat="48.11336" lon="-4.17069">
        <ele>128.77</ele>
        <time>2021-03-04T13:28:13Z</time>
      </trkpt>
      <trkpt lat="48.1134" lon="-4.17062">
        <ele>128.45</ele>
        <time>2021-03-04T13:28:19Z</time>
      </trkpt>
      <trkpt lat="48.11341" lon="-4.17055">
        <ele>128.31</ele>
        <time>2021-03-04T13:28:23Z</time>
      </trkpt>
      <trkpt lat="48.11356" lon="-4.17027">
        <ele>125.08</ele>
        <time>2021-03-04T13:28:42Z</time>
      </trkpt>
      <trkpt lat="48.11374" lon="-4.17007">
        <ele>124.71</ele>
        <time>2021-03-04T13:28:58Z</time>
      </trkpt>
      <trkpt lat="48.11384" lon="-4.16992">
        <ele>125.46</ele>
        <time>2021-03-04T13:29:10Z</time>
      </trkpt>
      <trkpt lat="48.1139" lon="-4.1699">
        <ele>127.45</ele>
        <time>2021-03-04T13:29:17Z</time>
      </trkpt>
      <trkpt lat="48.11402" lon="-4.17012">
        <ele>126.95</ele>
        <time>2021-03-04T13:29:32Z</time>
      </trkpt>
      <trkpt lat="48.11414" lon="-4.17039">
        <ele>124.89</ele>
        <time>2021-03-04T13:29:48Z</time>
      </trkpt>
      <trkpt lat="48.11421" lon="-4.17052">
        <ele>123.02</ele>
        <time>2021-03-04T13:29:56Z</time>
      </trkpt>
      <trkpt lat="48.11424" lon="-4.17058">
        <ele>122.42</ele>
        <time>2021-03-04T13:30:00Z</time>
      </trkpt>
      <trkpt lat="48.11426" lon="-4.17063">
        <ele>122.36</ele>
        <time>2021-03-04T13:30:03Z</time>
      </trkpt>
      <trkpt lat="48.11429" lon="-4.17069">
        <ele>123.45</ele>
        <time>2021-03-04T13:30:07Z</time>
      </trkpt>
      <trkpt lat="48.11442" lon="-4.17094">
        <ele>124.92</ele>
        <time>2021-03-04T13:30:23Z</time>
      </trkpt>
      <trkpt lat="48.11461" lon="-4.17122">
        <ele>120.16</ele>
        <time>2021-03-04T13:30:43Z</time>
      </trkpt>
      <trkpt lat="48.11466" lon="-4.17134">
        <ele>120.12</ele>
        <time>2021-03-04T13:30:51Z</time>
      </trkpt>
      <trkpt lat="48.11489" lon="-4.17149">
        <ele>122.33</ele>
        <time>2021-03-04T13:31:10Z</time>
      </trkpt>
      <trkpt lat="48.1151" lon="-4.17157">
        <ele>119.52</ele>
        <time>2021-03-04T13:31:27Z</time>
      </trkpt>
      <trkpt lat="48.11534" lon="-4.17165">
        <ele>117.49</ele>
        <time>2021-03-04T13:31:45Z</time>
      </trkpt>
      <trkpt lat="48.11564" lon="-4.17175">
        <ele>119.17</ele>
        <time>2021-03-04T13:32:07Z</time>
      </trkpt>
      <trkpt lat="48.11583" lon="-4.1718">
        <ele>121.41</ele>
        <time>2021-03-04T13:32:21Z</time>
      </trkpt>
      <trkpt lat="48.116" lon="-4.17188">
        <ele>120.66</ele>
        <time>2021-03-04T13:32:36Z</time>
      </trkpt>
      <trkpt lat="48.11622" lon="-4.17196">
        <ele>119.78</ele>
        <time>2021-03-04T13:32:53Z</time>
      </trkpt>
      <trkpt lat="48.11636" lon="-4.17202">
        <ele>118.85</ele>
        <time>2021-03-04T13:33:04Z</time>
      </trkpt>
      <trkpt lat="48.11654" lon="-4.17216">
        <ele>119.73</ele>
        <time>2021-03-04T13:33:20Z</time>
      </trkpt>
      <trkpt lat="48.1168" lon="-4.17229">
        <ele>119.89</ele>
        <time>2021-03-04T13:33:39Z</time>
      </trkpt>
      <trkpt lat="48.11695" lon="-4.17241">
        <ele>118.74</ele>
        <time>2021-03-04T13:33:54Z</time>
      </trkpt>
      <trkpt lat="48.11711" lon="-4.17251">
        <ele>119.53</ele>
        <time>2021-03-04T13:34:08Z</time>
      </trkpt>
      <trkpt lat="48.11716" lon="-4.17255">
        <ele>119.6</ele>
        <time>2021-03-04T13:34:12Z</time>
      </trkpt>
      <trkpt lat="48.11725" lon="-4.17265">
        <ele>120.63</ele>
        <time>2021-03-04T13:34:24Z</time>
      </trkpt>
      <trkpt lat="48.1173" lon="-4.1727">
        <ele>120.71</ele>
        <time>2021-03-04T13:34:29Z</time>
      </trkpt>
      <trkpt lat="48.11732" lon="-4.17273">
        <ele>120.48</ele>
        <time>2021-03-04T13:34:31Z</time>
      </trkpt>
      <trkpt lat="48.11738" lon="-4.17278">
        <ele>120.21</ele>
        <time>2021-03-04T13:34:38Z</time>
      </trkpt>
      <trkpt lat="48.11756" lon="-4.17294">
        <ele>118.78</ele>
        <time>2021-03-04T13:34:57Z</time>
      </trkpt>
      <trkpt lat="48.11757" lon="-4.17295">
        <ele>118.71</ele>
        <time>2021-03-04T13:34:58Z</time>
      </trkpt>
      <trkpt lat="48.11774" lon="-4.17312">
        <ele>117.1</ele>
        <time>2021-03-04T13:35:13Z</time>
      </trkpt>
      <trkpt lat="48.11789" lon="-4.17325">
        <ele>115.82</ele>
        <time>2021-03-04T13:35:29Z</time>
      </trkpt>
      <trkpt lat="48.11801" lon="-4.17336">
        <ele>115.65</ele>
        <time>2021-03-04T13:35:42Z</time>
      </trkpt>
      <trkpt lat="48.11816" lon="-4.17345">
        <ele>116.13</ele>
        <time>2021-03-04T13:35:55Z</time>
      </trkpt>
      <trkpt lat="48.11832" lon="-4.17362">
        <ele>116.3</ele>
        <time>2021-03-04T13:36:09Z</time>
      </trkpt>
      <trkpt lat="48.11861" lon="-4.17385">
        <ele>116.6</ele>
        <time>2021-03-04T13:36:31Z</time>
      </trkpt>
      <trkpt lat="48.11891" lon="-4.17405">
        <ele>115.96</ele>
        <time>2021-03-04T13:36:54Z</time>
      </trkpt>
      <trkpt lat="48.11905" lon="-4.1742">
        <ele>115.78</ele>
        <time>2021-03-04T13:37:10Z</time>
      </trkpt>
      <trkpt lat="48.11932" lon="-4.17437">
        <ele>114.46</ele>
        <time>2021-03-04T13:37:33Z</time>
      </trkpt>
      <trkpt lat="48.1196" lon="-4.17459">
        <ele>113.55</ele>
        <time>2021-03-04T13:37:57Z</time>
      </trkpt>
      <trkpt lat="48.11989" lon="-4.17479">
        <ele>113.03</ele>
        <time>2021-03-04T13:38:23Z</time>
      </trkpt>
      <trkpt lat="48.11995" lon="-4.17482">
        <ele>113.11</ele>
        <time>2021-03-04T13:38:32Z</time>
      </trkpt>
      <trkpt lat="48.12017" lon="-4.17496">
        <ele>112.89</ele>
        <time>2021-03-04T13:38:49Z</time>
      </trkpt>
      <trkpt lat="48.12026" lon="-4.1751">
        <ele>112.1</ele>
        <time>2021-03-04T13:39:07Z</time>
      </trkpt>
      <trkpt lat="48.12024" lon="-4.17551">
        <ele>112.75</ele>
        <time>2021-03-04T13:39:32Z</time>
      </trkpt>
      <trkpt lat="48.12023" lon="-4.17582">
        <ele>114.72</ele>
        <time>2021-03-04T13:39:51Z</time>
      </trkpt>
      <trkpt lat="48.1203" lon="-4.17623">
        <ele>115.62</ele>
        <time>2021-03-04T13:40:13Z</time>
      </trkpt>
      <trkpt lat="48.12031" lon="-4.17636">
        <ele>114.12</ele>
        <time>2021-03-04T13:40:19Z</time>
      </trkpt>
      <trkpt lat="48.12031" lon="-4.17646">
        <ele>112.83</ele>
        <time>2021-03-04T13:40:23Z</time>
      </trkpt>
      <trkpt lat="48.12035" lon="-4.17676">
        <ele>110.44</ele>
        <time>2021-03-04T13:40:40Z</time>
      </trkpt>
      <trkpt lat="48.12036" lon="-4.17689">
        <ele>110.29</ele>
        <time>2021-03-04T13:40:47Z</time>
      </trkpt>
      <trkpt lat="48.12039" lon="-4.17718">
        <ele>109.43</ele>
        <time>2021-03-04T13:41:04Z</time>
      </trkpt>
      <trkpt lat="48.12039" lon="-4.17733">
        <ele>109.63</ele>
        <time>2021-03-04T13:41:13Z</time>
      </trkpt>
      <trkpt lat="48.12037" lon="-4.17757">
        <ele>109.69</ele>
        <time>2021-03-04T13:41:26Z</time>
      </trkpt>
      <trkpt lat="48.12037" lon="-4.17779">
        <ele>110.07</ele>
        <time>2021-03-04T13:41:41Z</time>
      </trkpt>
      <trkpt lat="48.12036" lon="-4.17809">
        <ele>110.33</ele>
        <time>2021-03-04T13:41:57Z</time>
      </trkpt>
      <trkpt lat="48.12034" lon="-4.17831">
        <ele>114.23</ele>
        <time>2021-03-04T13:42:16Z</time>
      </trkpt>
      <trkpt lat="48.12031" lon="-4.17861">
        <ele>117.61</ele>
        <time>2021-03-04T13:42:32Z</time>
      </trkpt>
      <trkpt lat="48.12024" lon="-4.17895">
        <ele>122.29</ele>
        <time>2021-03-04T13:42:56Z</time>
      </trkpt>
      <trkpt lat="48.12021" lon="-4.17917">
        <ele>119.73</ele>
        <time>2021-03-04T13:43:20Z</time>
      </trkpt>
      <trkpt lat="48.12019" lon="-4.1794">
        <ele>118.02</ele>
        <time>2021-03-04T13:43:34Z</time>
      </trkpt>
      <trkpt lat="48.12013" lon="-4.17973">
        <ele>117.97</ele>
        <time>2021-03-04T13:43:55Z</time>
      </trkpt>
      <trkpt lat="48.12009" lon="-4.18017">
        <ele>115.84</ele>
        <time>2021-03-04T13:44:21Z</time>
      </trkpt>
      <trkpt lat="48.12004" lon="-4.18056">
        <ele>115.02</ele>
        <time>2021-03-04T13:44:45Z</time>
      </trkpt>
      <trkpt lat="48.11995" lon="-4.18107">
        <ele>113.55</ele>
        <time>2021-03-04T13:45:12Z</time>
      </trkpt>
      <trkpt lat="48.11992" lon="-4.18142">
        <ele>112.66</ele>
        <time>2021-03-04T13:45:34Z</time>
      </trkpt>
      <trkpt lat="48.11995" lon="-4.18169">
        <ele>111.55</ele>
        <time>2021-03-04T13:45:54Z</time>
      </trkpt>
      <trkpt lat="48.12005" lon="-4.18176">
        <ele>110.39</ele>
        <time>2021-03-04T13:46:14Z</time>
      </trkpt>
      <trkpt lat="48.12017" lon="-4.18181">
        <ele>108.61</ele>
        <time>2021-03-04T13:46:40Z</time>
      </trkpt>
      <trkpt lat="48.12025" lon="-4.18184">
        <ele>109.96</ele>
        <time>2021-03-04T13:47:07Z</time>
      </trkpt>
      <trkpt lat="48.1203" lon="-4.18199">
        <ele>111.24</ele>
        <time>2021-03-04T13:47:25Z</time>
      </trkpt>
      <trkpt lat="48.12032" lon="-4.18209">
        <ele>111.39</ele>
        <time>2021-03-04T13:47:30Z</time>
      </trkpt>
      <trkpt lat="48.12033" lon="-4.18238">
        <ele>110.56</ele>
        <time>2021-03-04T13:47:49Z</time>
      </trkpt>
      <trkpt lat="48.12037" lon="-4.18267">
        <ele>110.13</ele>
        <time>2021-03-04T13:48:04Z</time>
      </trkpt>
      <trkpt lat="48.12042" lon="-4.18294">
        <ele>109.53</ele>
        <time>2021-03-04T13:48:19Z</time>
      </trkpt>
      <trkpt lat="48.12045" lon="-4.18324">
        <ele>108.77</ele>
        <time>2021-03-04T13:48:39Z</time>
      </trkpt>
      <trkpt lat="48.12048" lon="-4.18354">
        <ele>109.77</ele>
        <time>2021-03-04T13:48:55Z</time>
      </trkpt>
      <trkpt lat="48.12052" lon="-4.18393">
        <ele>113.44</ele>
        <time>2021-03-04T13:49:20Z</time>
      </trkpt>
      <trkpt lat="48.12053" lon="-4.18401">
        <ele>113.67</ele>
        <time>2021-03-04T13:49:24Z</time>
      </trkpt>
      <trkpt lat="48.12055" lon="-4.18431">
        <ele>115.33</ele>
        <time>2021-03-04T13:49:41Z</time>
      </trkpt>
      <trkpt lat="48.12059" lon="-4.18447">
        <ele>116.33</ele>
        <time>2021-03-04T13:49:51Z</time>
      </trkpt>
      <trkpt lat="48.1206" lon="-4.18457">
        <ele>116.72</ele>
        <time>2021-03-04T13:49:58Z</time>
      </trkpt>
      <trkpt lat="48.12057" lon="-4.18466">
        <ele>117.52</ele>
        <time>2021-03-04T13:50:04Z</time>
      </trkpt>
      <trkpt lat="48.12042" lon="-4.18476">
        <ele>118.74</ele>
        <time>2021-03-04T13:50:20Z</time>
      </trkpt>
      <trkpt lat="48.12035" lon="-4.18481">
        <ele>120.42</ele>
        <time>2021-03-04T13:50:29Z</time>
      </trkpt>
      <trkpt lat="48.12026" lon="-4.18487">
        <ele>122.65</ele>
        <time>2021-03-04T13:50:37Z</time>
      </trkpt>
      <trkpt lat="48.12024" lon="-4.1849">
        <ele>123.04</ele>
        <time>2021-03-04T13:50:39Z</time>
      </trkpt>
      <trkpt lat="48.12022" lon="-4.18492">
        <ele>123.38</ele>
        <time>2021-03-04T13:50:41Z</time>
      </trkpt>
      <trkpt lat="48.11999" lon="-4.1851">
        <ele>128.35</ele>
        <time>2021-03-04T13:51:04Z</time>
      </trkpt>
      <trkpt lat="48.11977" lon="-4.1853">
        <ele>136.18</ele>
        <time>2021-03-04T13:51:30Z</time>
      </trkpt>
      <trkpt lat="48.11971" lon="-4.18537">
        <ele>137.67</ele>
        <time>2021-03-04T13:51:37Z</time>
      </trkpt>
      <trkpt lat="48.11966" lon="-4.18541">
        <ele>137.87</ele>
        <time>2021-03-04T13:51:40Z</time>
      </trkpt>
      <trkpt lat="48.11938" lon="-4.18572">
        <ele>142.37</ele>
        <time>2021-03-04T13:52:05Z</time>
      </trkpt>
      <trkpt lat="48.11916" lon="-4.18588">
        <ele>146.05</ele>
        <time>2021-03-04T13:52:26Z</time>
      </trkpt>
      <trkpt lat="48.1191" lon="-4.18594">
        <ele>146.89</ele>
        <time>2021-03-04T13:52:31Z</time>
      </trkpt>
      <trkpt lat="48.11898" lon="-4.18607">
        <ele>147.18</ele>
        <time>2021-03-04T13:52:39Z</time>
      </trkpt>
      <trkpt lat="48.11872" lon="-4.18631">
        <ele>143.25</ele>
        <time>2021-03-04T13:52:56Z</time>
      </trkpt>
      <trkpt lat="48.11842" lon="-4.18661">
        <ele>140.04</ele>
        <time>2021-03-04T13:53:24Z</time>
      </trkpt>
      <trkpt lat="48.11819" lon="-4.1868">
        <ele>137.53</ele>
        <time>2021-03-04T13:53:47Z</time>
      </trkpt>
      <trkpt lat="48.11787" lon="-4.18708">
        <ele>134.26</ele>
        <time>2021-03-04T13:54:11Z</time>
      </trkpt>
      <trkpt lat="48.11761" lon="-4.18734">
        <ele>131.04</ele>
        <time>2021-03-04T13:54:36Z</time>
      </trkpt>
      <trkpt lat="48.11743" lon="-4.1875">
        <ele>126.86</ele>
        <time>2021-03-04T13:54:52Z</time>
      </trkpt>
      <trkpt lat="48.11724" lon="-4.18748">
        <ele>120.13</ele>
        <time>2021-03-04T13:55:09Z</time>
      </trkpt>
      <trkpt lat="48.11711" lon="-4.18721">
        <ele>113.23</ele>
        <time>2021-03-04T13:55:27Z</time>
      </trkpt>
      <trkpt lat="48.11695" lon="-4.18692">
        <ele>113.02</ele>
        <time>2021-03-04T13:55:48Z</time>
      </trkpt>
      <trkpt lat="48.11688" lon="-4.18683">
        <ele>112.18</ele>
        <time>2021-03-04T13:55:57Z</time>
      </trkpt>
      <trkpt lat="48.11672" lon="-4.18683">
        <ele>113.4</ele>
        <time>2021-03-04T13:56:12Z</time>
      </trkpt>
      <trkpt lat="48.11649" lon="-4.18689">
        <ele>112.48</ele>
        <time>2021-03-04T13:56:31Z</time>
      </trkpt>
      <trkpt lat="48.11627" lon="-4.18692">
        <ele>113.75</ele>
        <time>2021-03-04T13:56:49Z</time>
      </trkpt>
      <trkpt lat="48.11613" lon="-4.18696">
        <ele>114.99</ele>
        <time>2021-03-04T13:57:02Z</time>
      </trkpt>
      <trkpt lat="48.11612" lon="-4.18696">
        <ele>115.17</ele>
        <time>2021-03-04T13:57:03Z</time>
      </trkpt>
      <trkpt lat="48.11606" lon="-4.18697">
        <ele>115.07</ele>
        <time>2021-03-04T13:57:07Z</time>
      </trkpt>
      <trkpt lat="48.11585" lon="-4.18702">
        <ele>116.21</ele>
        <time>2021-03-04T13:57:25Z</time>
      </trkpt>
      <trkpt lat="48.11564" lon="-4.18708">
        <ele>116.07</ele>
        <time>2021-03-04T13:57:42Z</time>
      </trkpt>
      <trkpt lat="48.11542" lon="-4.18713">
        <ele>116.38</ele>
        <time>2021-03-04T13:58:00Z</time>
      </trkpt>
      <trkpt lat="48.11524" lon="-4.18717">
        <ele>115.25</ele>
        <time>2021-03-04T13:58:15Z</time>
      </trkpt>
      <trkpt lat="48.11522" lon="-4.18717">
        <ele>115.09</ele>
        <time>2021-03-04T13:58:17Z</time>
      </trkpt>
      <trkpt lat="48.11504" lon="-4.18723">
        <ele>113.7</ele>
        <time>2021-03-04T13:58:35Z</time>
      </trkpt>
      <trkpt lat="48.11483" lon="-4.18728">
        <ele>112.24</ele>
        <time>2021-03-04T13:58:52Z</time>
      </trkpt>
      <trkpt lat="48.1146" lon="-4.18734">
        <ele>111.25</ele>
        <time>2021-03-04T13:59:12Z</time>
      </trkpt>
      <trkpt lat="48.11437" lon="-4.18739">
        <ele>112.32</ele>
        <time>2021-03-04T13:59:32Z</time>
      </trkpt>
      <trkpt lat="48.11412" lon="-4.18744">
        <ele>113.24</ele>
        <time>2021-03-04T13:59:53Z</time>
      </trkpt>
      <trkpt lat="48.11388" lon="-4.18751">
        <ele>112.02</ele>
        <time>2021-03-04T14:00:15Z</time>
      </trkpt>
      <trkpt lat="48.11381" lon="-4.18752">
        <ele>110.48</ele>
        <time>2021-03-04T14:00:21Z</time>
      </trkpt>
      <trkpt lat="48.11363" lon="-4.18758">
        <ele>105.17</ele>
        <time>2021-03-04T14:00:36Z</time>
      </trkpt>
      <trkpt lat="48.11343" lon="-4.18764">
        <ele>103.03</ele>
        <time>2021-03-04T14:00:53Z</time>
      </trkpt>
      <trkpt lat="48.11323" lon="-4.18769">
        <ele>102.07</ele>
        <time>2021-03-04T14:01:10Z</time>
      </trkpt>
      <trkpt lat="48.11301" lon="-4.18776">
        <ele>103.76</ele>
        <time>2021-03-04T14:01:28Z</time>
      </trkpt>
      <trkpt lat="48.1128" lon="-4.18781">
        <ele>105.94</ele>
        <time>2021-03-04T14:01:45Z</time>
      </trkpt>
      <trkpt lat="48.11262" lon="-4.18786">
        <ele>105.05</ele>
        <time>2021-03-04T14:02:00Z</time>
      </trkpt>
      <trkpt lat="48.11243" lon="-4.18788">
        <ele>105.19</ele>
        <time>2021-03-04T14:02:13Z</time>
      </trkpt>
      <trkpt lat="48.11221" lon="-4.18793">
        <ele>105.75</ele>
        <time>2021-03-04T14:02:30Z</time>
      </trkpt>
      <trkpt lat="48.11202" lon="-4.18798">
        <ele>105.84</ele>
        <time>2021-03-04T14:02:45Z</time>
      </trkpt>
      <trkpt lat="48.11184" lon="-4.18802">
        <ele>105.84</ele>
        <time>2021-03-04T14:02:58Z</time>
      </trkpt>
      <trkpt lat="48.11162" lon="-4.18806">
        <ele>105.81</ele>
        <time>2021-03-04T14:03:15Z</time>
      </trkpt>
      <trkpt lat="48.11156" lon="-4.18806">
        <ele>107.49</ele>
        <time>2021-03-04T14:03:20Z</time>
      </trkpt>
      <trkpt lat="48.11151" lon="-4.18807">
        <ele>107.87</ele>
        <time>2021-03-04T14:03:24Z</time>
      </trkpt>
      <trkpt lat="48.1113" lon="-4.18812">
        <ele>108.7</ele>
        <time>2021-03-04T14:03:40Z</time>
      </trkpt>
      <trkpt lat="48.11109" lon="-4.18816">
        <ele>108.44</ele>
        <time>2021-03-04T14:03:56Z</time>
      </trkpt>
      <trkpt lat="48.11088" lon="-4.18821">
        <ele>107.44</ele>
        <time>2021-03-04T14:04:13Z</time>
      </trkpt>
      <trkpt lat="48.11083" lon="-4.18823">
        <ele>107.09</ele>
        <time>2021-03-04T14:04:17Z</time>
      </trkpt>
      <trkpt lat="48.11072" lon="-4.18826">
        <ele>105.87</ele>
        <time>2021-03-04T14:04:25Z</time>
      </trkpt>
      <trkpt lat="48.11052" lon="-4.18829">
        <ele>104.39</ele>
        <time>2021-03-04T14:04:42Z</time>
      </trkpt>
      <trkpt lat="48.11029" lon="-4.18834">
        <ele>103.16</ele>
        <time>2021-03-04T14:04:58Z</time>
      </trkpt>
      <trkpt lat="48.11014" lon="-4.18838">
        <ele>103.08</ele>
        <time>2021-03-04T14:05:11Z</time>
      </trkpt>
      <trkpt lat="48.10997" lon="-4.1884">
        <ele>102.17</ele>
        <time>2021-03-04T14:05:23Z</time>
      </trkpt>
      <trkpt lat="48.10992" lon="-4.18842">
        <ele>102.17</ele>
        <time>2021-03-04T14:05:27Z</time>
      </trkpt>
      <trkpt lat="48.10971" lon="-4.18847">
        <ele>102.01</ele>
        <time>2021-03-04T14:05:44Z</time>
      </trkpt>
      <trkpt lat="48.10953" lon="-4.18851">
        <ele>101.15</ele>
        <time>2021-03-04T14:05:59Z</time>
      </trkpt>
      <trkpt lat="48.10948" lon="-4.18854">
        <ele>101.13</ele>
        <time>2021-03-04T14:06:03Z</time>
      </trkpt>
      <trkpt lat="48.10932" lon="-4.18857">
        <ele>100.85</ele>
        <time>2021-03-04T14:06:15Z</time>
      </trkpt>
      <trkpt lat="48.10918" lon="-4.18875">
        <ele>100.38</ele>
        <time>2021-03-04T14:06:32Z</time>
      </trkpt>
      <trkpt lat="48.10916" lon="-4.18924">
        <ele>101.46</ele>
        <time>2021-03-04T14:06:56Z</time>
      </trkpt>
      <trkpt lat="48.10914" lon="-4.18963">
        <ele>100.18</ele>
        <time>2021-03-04T14:07:17Z</time>
      </trkpt>
      <trkpt lat="48.10913" lon="-4.19008">
        <ele>100.09</ele>
        <time>2021-03-04T14:07:40Z</time>
      </trkpt>
      <trkpt lat="48.10912" lon="-4.19044">
        <ele>101.37</ele>
        <time>2021-03-04T14:07:57Z</time>
      </trkpt>
      <trkpt lat="48.1091" lon="-4.19078">
        <ele>101.01</ele>
        <time>2021-03-04T14:08:15Z</time>
      </trkpt>
      <trkpt lat="48.10908" lon="-4.19122">
        <ele>100.62</ele>
        <time>2021-03-04T14:08:35Z</time>
      </trkpt>
      <trkpt lat="48.10898" lon="-4.19139">
        <ele>102.18</ele>
        <time>2021-03-04T14:08:51Z</time>
      </trkpt>
      <trkpt lat="48.10869" lon="-4.19132">
        <ele>106</ele>
        <time>2021-03-04T14:09:16Z</time>
      </trkpt>
      <trkpt lat="48.10849" lon="-4.19136">
        <ele>108.8</ele>
        <time>2021-03-04T14:09:36Z</time>
      </trkpt>
      <trkpt lat="48.10818" lon="-4.19155">
        <ele>110.95</ele>
        <time>2021-03-04T14:10:00Z</time>
      </trkpt>
      <trkpt lat="48.10808" lon="-4.19207">
        <ele>111.32</ele>
        <time>2021-03-04T14:10:25Z</time>
      </trkpt>
      <trkpt lat="48.10803" lon="-4.19237">
        <ele>113.79</ele>
        <time>2021-03-04T14:10:42Z</time>
      </trkpt>
      <trkpt lat="48.10803" lon="-4.19259">
        <ele>111.44</ele>
        <time>2021-03-04T14:11:00Z</time>
      </trkpt>
      <trkpt lat="48.10801" lon="-4.19278">
        <ele>109.27</ele>
        <time>2021-03-04T14:11:15Z</time>
      </trkpt>
      <trkpt lat="48.10798" lon="-4.19315">
        <ele>107.78</ele>
        <time>2021-03-04T14:11:40Z</time>
      </trkpt>
      <trkpt lat="48.10792" lon="-4.1935">
        <ele>105.29</ele>
        <time>2021-03-04T14:12:06Z</time>
      </trkpt>
      <trkpt lat="48.10776" lon="-4.19375">
        <ele>105.31</ele>
        <time>2021-03-04T14:12:29Z</time>
      </trkpt>
      <trkpt lat="48.10767" lon="-4.19389">
        <ele>105.17</ele>
        <time>2021-03-04T14:12:41Z</time>
      </trkpt>
      <trkpt lat="48.10752" lon="-4.19408">
        <ele>107.31</ele>
        <time>2021-03-04T14:13:02Z</time>
      </trkpt>
      <trkpt lat="48.10731" lon="-4.19422">
        <ele>113.39</ele>
        <time>2021-03-04T14:13:28Z</time>
      </trkpt>
      <trkpt lat="48.10704" lon="-4.19424">
        <ele>117.36</ele>
        <time>2021-03-04T14:13:57Z</time>
      </trkpt>
      <trkpt lat="48.10677" lon="-4.19422">
        <ele>122.05</ele>
        <time>2021-03-04T14:14:27Z</time>
      </trkpt>
      <trkpt lat="48.10661" lon="-4.19423">
        <ele>124.43</ele>
        <time>2021-03-04T14:14:43Z</time>
      </trkpt>
      <trkpt lat="48.10637" lon="-4.19423">
        <ele>127.61</ele>
        <time>2021-03-04T14:15:08Z</time>
      </trkpt>
      <trkpt lat="48.1062" lon="-4.19423">
        <ele>129.11</ele>
        <time>2021-03-04T14:15:25Z</time>
      </trkpt>
      <trkpt lat="48.10595" lon="-4.19425">
        <ele>130.61</ele>
        <time>2021-03-04T14:15:48Z</time>
      </trkpt>
      <trkpt lat="48.10572" lon="-4.19441">
        <ele>132.09</ele>
        <time>2021-03-04T14:16:11Z</time>
      </trkpt>
      <trkpt lat="48.10568" lon="-4.19462">
        <ele>131.98</ele>
        <time>2021-03-04T14:16:25Z</time>
      </trkpt>
      <trkpt lat="48.10566" lon="-4.19488">
        <ele>128.35</ele>
        <time>2021-03-04T14:16:41Z</time>
      </trkpt>
      <trkpt lat="48.10563" lon="-4.19512">
        <ele>125.37</ele>
        <time>2021-03-04T14:16:57Z</time>
      </trkpt>
      <trkpt lat="48.10556" lon="-4.19545">
        <ele>121.96</ele>
        <time>2021-03-04T14:17:20Z</time>
      </trkpt>
      <trkpt lat="48.1055" lon="-4.19575">
        <ele>118.86</ele>
        <time>2021-03-04T14:17:42Z</time>
      </trkpt>
      <trkpt lat="48.1054" lon="-4.19618">
        <ele>117.41</ele>
        <time>2021-03-04T14:18:06Z</time>
      </trkpt>
      <trkpt lat="48.10535" lon="-4.19645">
        <ele>116.39</ele>
        <time>2021-03-04T14:18:27Z</time>
      </trkpt>
      <trkpt lat="48.10526" lon="-4.19675">
        <ele>114.52</ele>
        <time>2021-03-04T14:18:51Z</time>
      </trkpt>
      <trkpt lat="48.1052" lon="-4.19706">
        <ele>112.23</ele>
        <time>2021-03-04T14:19:13Z</time>
      </trkpt>
      <trkpt lat="48.10518" lon="-4.19719">
        <ele>111.66</ele>
        <time>2021-03-04T14:19:17Z</time>
      </trkpt>
      <trkpt lat="48.10511" lon="-4.19753">
        <ele>111.33</ele>
        <time>2021-03-04T14:19:31Z</time>
      </trkpt>
      <trkpt lat="48.10521" lon="-4.19782">
        <ele>114.54</ele>
        <time>2021-03-04T14:19:46Z</time>
      </trkpt>
      <trkpt lat="48.10537" lon="-4.19789">
        <ele>114.96</ele>
        <time>2021-03-04T14:20:00Z</time>
      </trkpt>
      <trkpt lat="48.10554" lon="-4.19799">
        <ele>115.6</ele>
        <time>2021-03-04T14:20:15Z</time>
      </trkpt>
      <trkpt lat="48.1058" lon="-4.19803">
        <ele>117.59</ele>
        <time>2021-03-04T14:20:35Z</time>
      </trkpt>
      <trkpt lat="48.10605" lon="-4.19813">
        <ele>118.06</ele>
        <time>2021-03-04T14:20:57Z</time>
      </trkpt>
      <trkpt lat="48.10616" lon="-4.19829">
        <ele>119.27</ele>
        <time>2021-03-04T14:21:13Z</time>
      </trkpt>
      <trkpt lat="48.10624" lon="-4.19863">
        <ele>120.45</ele>
        <time>2021-03-04T14:21:32Z</time>
      </trkpt>
      <trkpt lat="48.10629" lon="-4.19895">
        <ele>121.56</ele>
        <time>2021-03-04T14:21:51Z</time>
      </trkpt>
      <trkpt lat="48.10635" lon="-4.19916">
        <ele>121.89</ele>
        <time>2021-03-04T14:22:03Z</time>
      </trkpt>
      <trkpt lat="48.10642" lon="-4.19939">
        <ele>123.99</ele>
        <time>2021-03-04T14:22:19Z</time>
      </trkpt>
      <trkpt lat="48.10642" lon="-4.19941">
        <ele>124.13</ele>
        <time>2021-03-04T14:22:20Z</time>
      </trkpt>
      <trkpt lat="48.10649" lon="-4.19987">
        <ele>127.83</ele>
        <time>2021-03-04T14:22:45Z</time>
      </trkpt>
      <trkpt lat="48.10657" lon="-4.20029">
        <ele>131.32</ele>
        <time>2021-03-04T14:23:10Z</time>
      </trkpt>
      <trkpt lat="48.10663" lon="-4.20057">
        <ele>131.29</ele>
        <time>2021-03-04T14:23:25Z</time>
      </trkpt>
      <trkpt lat="48.1066" lon="-4.20082">
        <ele>132.28</ele>
        <time>2021-03-04T14:23:41Z</time>
      </trkpt>
      <trkpt lat="48.1066" lon="-4.20098">
        <ele>133.56</ele>
        <time>2021-03-04T14:23:51Z</time>
      </trkpt>
      <trkpt lat="48.10665" lon="-4.20139">
        <ele>135.25</ele>
        <time>2021-03-04T14:24:15Z</time>
      </trkpt>
      <trkpt lat="48.10665" lon="-4.20184">
        <ele>134.28</ele>
        <time>2021-03-04T14:24:37Z</time>
      </trkpt>
      <trkpt lat="48.10669" lon="-4.20227">
        <ele>130.59</ele>
        <time>2021-03-04T14:25:01Z</time>
      </trkpt>
      <trkpt lat="48.10674" lon="-4.20273">
        <ele>125.72</ele>
        <time>2021-03-04T14:25:23Z</time>
      </trkpt>
      <trkpt lat="48.10679" lon="-4.20317">
        <ele>119.44</ele>
        <time>2021-03-04T14:25:48Z</time>
      </trkpt>
      <trkpt lat="48.10681" lon="-4.20349">
        <ele>116.23</ele>
        <time>2021-03-04T14:26:03Z</time>
      </trkpt>
      <trkpt lat="48.10685" lon="-4.20379">
        <ele>112.02</ele>
        <time>2021-03-04T14:26:25Z</time>
      </trkpt>
      <trkpt lat="48.10688" lon="-4.20415">
        <ele>107.26</ele>
        <time>2021-03-04T14:26:44Z</time>
      </trkpt>
      <trkpt lat="48.1069" lon="-4.2045">
        <ele>102.72</ele>
        <time>2021-03-04T14:27:03Z</time>
      </trkpt>
      <trkpt lat="48.10693" lon="-4.20484">
        <ele>101.55</ele>
        <time>2021-03-04T14:27:22Z</time>
      </trkpt>
      <trkpt lat="48.10694" lon="-4.20491">
        <ele>101.23</ele>
        <time>2021-03-04T14:27:26Z</time>
      </trkpt>
      <trkpt lat="48.10697" lon="-4.20521">
        <ele>101.63</ele>
        <time>2021-03-04T14:27:44Z</time>
      </trkpt>
      <trkpt lat="48.10697" lon="-4.20534">
        <ele>101.34</ele>
        <time>2021-03-04T14:27:52Z</time>
      </trkpt>
      <trkpt lat="48.10699" lon="-4.20551">
        <ele>100.33</ele>
        <time>2021-03-04T14:28:01Z</time>
      </trkpt>
      <trkpt lat="48.10699" lon="-4.20559">
        <ele>100.32</ele>
        <time>2021-03-04T14:28:05Z</time>
      </trkpt>
      <trkpt lat="48.10699" lon="-4.20576">
        <ele>99.43</ele>
        <time>2021-03-04T14:28:14Z</time>
      </trkpt>
      <trkpt lat="48.107" lon="-4.20605">
        <ele>99.68</ele>
        <time>2021-03-04T14:28:30Z</time>
      </trkpt>
      <trkpt lat="48.10705" lon="-4.20645">
        <ele>97.87</ele>
        <time>2021-03-04T14:28:51Z</time>
      </trkpt>
      <trkpt lat="48.10708" lon="-4.20663">
        <ele>96.74</ele>
        <time>2021-03-04T14:29:00Z</time>
      </trkpt>
      <trkpt lat="48.10709" lon="-4.2067">
        <ele>96.06</ele>
        <time>2021-03-04T14:29:04Z</time>
      </trkpt>
      <trkpt lat="48.10711" lon="-4.20695">
        <ele>95.54</ele>
        <time>2021-03-04T14:29:19Z</time>
      </trkpt>
      <trkpt lat="48.1071" lon="-4.20702">
        <ele>97.1</ele>
        <time>2021-03-04T14:29:38Z</time>
      </trkpt>
      <trkpt lat="48.10713" lon="-4.20716">
        <ele>97.89</ele>
        <time>2021-03-04T14:29:50Z</time>
      </trkpt>
      <trkpt lat="48.10716" lon="-4.20745">
        <ele>98.83</ele>
        <time>2021-03-04T14:30:06Z</time>
      </trkpt>
      <trkpt lat="48.10718" lon="-4.20758">
        <ele>99.11</ele>
        <time>2021-03-04T14:30:13Z</time>
      </trkpt>
      <trkpt lat="48.10719" lon="-4.20767">
        <ele>99.53</ele>
        <time>2021-03-04T14:30:18Z</time>
      </trkpt>
      <trkpt lat="48.10721" lon="-4.20777">
        <ele>99.79</ele>
        <time>2021-03-04T14:30:24Z</time>
      </trkpt>
      <trkpt lat="48.10723" lon="-4.20801">
        <ele>99.91</ele>
        <time>2021-03-04T14:30:37Z</time>
      </trkpt>
      <trkpt lat="48.10722" lon="-4.20825">
        <ele>99.35</ele>
        <time>2021-03-04T14:30:52Z</time>
      </trkpt>
      <trkpt lat="48.10721" lon="-4.20846">
        <ele>98.57</ele>
        <time>2021-03-04T14:31:05Z</time>
      </trkpt>
      <trkpt lat="48.10722" lon="-4.20876">
        <ele>96.71</ele>
        <time>2021-03-04T14:31:22Z</time>
      </trkpt>
      <trkpt lat="48.10724" lon="-4.20928">
        <ele>93.94</ele>
        <time>2021-03-04T14:31:47Z</time>
      </trkpt>
      <trkpt lat="48.10723" lon="-4.20958">
        <ele>91.78</ele>
        <time>2021-03-04T14:32:05Z</time>
      </trkpt>
      <trkpt lat="48.10721" lon="-4.20987">
        <ele>89.63</ele>
        <time>2021-03-04T14:32:25Z</time>
      </trkpt>
      <trkpt lat="48.10717" lon="-4.21008">
        <ele>89.14</ele>
        <time>2021-03-04T14:32:33Z</time>
      </trkpt>
      <trkpt lat="48.10717" lon="-4.21012">
        <ele>89.02</ele>
        <time>2021-03-04T14:32:34Z</time>
      </trkpt>
      <trkpt lat="48.10718" lon="-4.21023">
        <ele>88.49</ele>
        <time>2021-03-04T14:32:39Z</time>
      </trkpt>
      <trkpt lat="48.10718" lon="-4.2104">
        <ele>87.75</ele>
        <time>2021-03-04T14:32:50Z</time>
      </trkpt>
      <trkpt lat="48.10714" lon="-4.21045">
        <ele>87.04</ele>
        <time>2021-03-04T14:32:55Z</time>
      </trkpt>
      <trkpt lat="48.10689" lon="-4.21043">
        <ele>85.64</ele>
        <time>2021-03-04T14:33:14Z</time>
      </trkpt>
      <trkpt lat="48.10673" lon="-4.21035">
        <ele>84.63</ele>
        <time>2021-03-04T14:33:27Z</time>
      </trkpt>
      <trkpt lat="48.10655" lon="-4.21029">
        <ele>85.58</ele>
        <time>2021-03-04T14:33:42Z</time>
      </trkpt>
      <trkpt lat="48.10638" lon="-4.21021">
        <ele>83.58</ele>
        <time>2021-03-04T14:33:57Z</time>
      </trkpt>
      <trkpt lat="48.10619" lon="-4.21012">
        <ele>80.77</ele>
        <time>2021-03-04T14:34:12Z</time>
      </trkpt>
      <trkpt lat="48.10612" lon="-4.21014">
        <ele>79.77</ele>
        <time>2021-03-04T14:34:22Z</time>
      </trkpt>
      <trkpt lat="48.10606" lon="-4.21008">
        <ele>79.62</ele>
        <time>2021-03-04T14:34:30Z</time>
      </trkpt>
      <trkpt lat="48.10604" lon="-4.21007">
        <ele>79.59</ele>
        <time>2021-03-04T14:34:31Z</time>
      </trkpt>
      <trkpt lat="48.10584" lon="-4.20999">
        <ele>78.29</ele>
        <time>2021-03-04T14:34:49Z</time>
      </trkpt>
      <trkpt lat="48.10583" lon="-4.20999">
        <ele>78.16</ele>
        <time>2021-03-04T14:34:50Z</time>
      </trkpt>
      <trkpt lat="48.10582" lon="-4.20998">
        <ele>78.09</ele>
        <time>2021-03-04T14:34:51Z</time>
      </trkpt>
      <trkpt lat="48.10581" lon="-4.20997">
        <ele>78.01</ele>
        <time>2021-03-04T14:34:52Z</time>
      </trkpt>
      <trkpt lat="48.10579" lon="-4.20997">
        <ele>77.89</ele>
        <time>2021-03-04T14:34:53Z</time>
      </trkpt>
      <trkpt lat="48.10563" lon="-4.20999">
        <ele>76.59</ele>
        <time>2021-03-04T14:35:08Z</time>
      </trkpt>
      <trkpt lat="48.1054" lon="-4.20996">
        <ele>74.81</ele>
        <time>2021-03-04T14:35:26Z</time>
      </trkpt>
      <trkpt lat="48.10522" lon="-4.21">
        <ele>74.25</ele>
        <time>2021-03-04T14:35:45Z</time>
      </trkpt>
      <trkpt lat="48.10514" lon="-4.21002">
        <ele>75.07</ele>
        <time>2021-03-04T14:36:00Z</time>
      </trkpt>
      <trkpt lat="48.10502" lon="-4.20999">
        <ele>75.8</ele>
        <time>2021-03-04T14:36:11Z</time>
      </trkpt>
      <trkpt lat="48.10495" lon="-4.20997">
        <ele>76.19</ele>
        <time>2021-03-04T14:36:16Z</time>
      </trkpt>
      <trkpt lat="48.10477" lon="-4.20997">
        <ele>76.65</ele>
        <time>2021-03-04T14:36:32Z</time>
      </trkpt>
      <trkpt lat="48.10445" lon="-4.21005">
        <ele>76.75</ele>
        <time>2021-03-04T14:37:01Z</time>
      </trkpt>
      <trkpt lat="48.10424" lon="-4.21007">
        <ele>77.56</ele>
        <time>2021-03-04T14:37:24Z</time>
      </trkpt>
      <trkpt lat="48.10412" lon="-4.21009">
        <ele>78.71</ele>
        <time>2021-03-04T14:37:39Z</time>
      </trkpt>
      <trkpt lat="48.10398" lon="-4.21012">
        <ele>80.04</ele>
        <time>2021-03-04T14:37:53Z</time>
      </trkpt>
      <trkpt lat="48.10382" lon="-4.21007">
        <ele>82.68</ele>
        <time>2021-03-04T14:38:13Z</time>
      </trkpt>
      <trkpt lat="48.10368" lon="-4.21001">
        <ele>84.22</ele>
        <time>2021-03-04T14:38:27Z</time>
      </trkpt>
      <trkpt lat="48.10348" lon="-4.20989">
        <ele>86.88</ele>
        <time>2021-03-04T14:38:51Z</time>
      </trkpt>
      <trkpt lat="48.10327" lon="-4.20977">
        <ele>89.06</ele>
        <time>2021-03-04T14:39:19Z</time>
      </trkpt>
      <trkpt lat="48.10317" lon="-4.20969">
        <ele>89.82</ele>
        <time>2021-03-04T14:39:30Z</time>
      </trkpt>
      <trkpt lat="48.10316" lon="-4.20968">
        <ele>89.93</ele>
        <time>2021-03-04T14:39:31Z</time>
      </trkpt>
      <trkpt lat="48.10315" lon="-4.20967">
        <ele>89.98</ele>
        <time>2021-03-04T14:39:32Z</time>
      </trkpt>
      <trkpt lat="48.10298" lon="-4.2096">
        <ele>91.58</ele>
        <time>2021-03-04T14:39:49Z</time>
      </trkpt>
      <trkpt lat="48.10297" lon="-4.2096">
        <ele>91.59</ele>
        <time>2021-03-04T14:39:50Z</time>
      </trkpt>
      <trkpt lat="48.10296" lon="-4.20958">
        <ele>91.59</ele>
        <time>2021-03-04T14:39:52Z</time>
      </trkpt>
      <trkpt lat="48.10284" lon="-4.20951">
        <ele>91.13</ele>
        <time>2021-03-04T14:40:04Z</time>
      </trkpt>
      <trkpt lat="48.10272" lon="-4.20967">
        <ele>93.69</ele>
        <time>2021-03-04T14:40:20Z</time>
      </trkpt>
      <trkpt lat="48.10264" lon="-4.20985">
        <ele>94.98</ele>
        <time>2021-03-04T14:40:33Z</time>
      </trkpt>
      <trkpt lat="48.10249" lon="-4.21012">
        <ele>95.78</ele>
        <time>2021-03-04T14:40:55Z</time>
      </trkpt>
      <trkpt lat="48.10235" lon="-4.2104">
        <ele>95.15</ele>
        <time>2021-03-04T14:41:20Z</time>
      </trkpt>
      <trkpt lat="48.10236" lon="-4.21042">
        <ele>95.33</ele>
        <time>2021-03-04T14:41:22Z</time>
      </trkpt>
      <trkpt lat="48.10236" lon="-4.21043">
        <ele>95.41</ele>
        <time>2021-03-04T14:41:23Z</time>
      </trkpt>
      <trkpt lat="48.10232" lon="-4.21037">
        <ele>94.68</ele>
        <time>2021-03-04T14:41:40Z</time>
      </trkpt>
      <trkpt lat="48.1022" lon="-4.21013">
        <ele>94.27</ele>
        <time>2021-03-04T14:42:04Z</time>
      </trkpt>
      <trkpt lat="48.10221" lon="-4.2101">
        <ele>94.22</ele>
        <time>2021-03-04T14:42:07Z</time>
      </trkpt>
      <trkpt lat="48.1023" lon="-4.21">
        <ele>93.97</ele>
        <time>2021-03-04T14:42:21Z</time>
      </trkpt>
      <trkpt lat="48.1024" lon="-4.20987">
        <ele>94.13</ele>
        <time>2021-03-04T14:42:33Z</time>
      </trkpt>
      <trkpt lat="48.1024" lon="-4.20975">
        <ele>95.52</ele>
        <time>2021-03-04T14:42:47Z</time>
      </trkpt>
      <trkpt lat="48.10237" lon="-4.20974">
        <ele>96.19</ele>
        <time>2021-03-04T14:42:54Z</time>
      </trkpt>
      <trkpt lat="48.10218" lon="-4.20991">
        <ele>98.24</ele>
        <time>2021-03-04T14:43:09Z</time>
      </trkpt>
      <trkpt lat="48.10202" lon="-4.20999">
        <ele>100.1</ele>
        <time>2021-03-04T14:43:25Z</time>
      </trkpt>
      <trkpt lat="48.10189" lon="-4.21005">
        <ele>101.57</ele>
        <time>2021-03-04T14:43:41Z</time>
      </trkpt>
      <trkpt lat="48.10172" lon="-4.2101">
        <ele>104.07</ele>
        <time>2021-03-04T14:43:58Z</time>
      </trkpt>
      <trkpt lat="48.10142" lon="-4.21012">
        <ele>108.97</ele>
        <time>2021-03-04T14:44:24Z</time>
      </trkpt>
      <trkpt lat="48.10132" lon="-4.21006">
        <ele>111.18</ele>
        <time>2021-03-04T14:44:42Z</time>
      </trkpt>
      <trkpt lat="48.10121" lon="-4.20999">
        <ele>112.92</ele>
        <time>2021-03-04T14:44:55Z</time>
      </trkpt>
      <trkpt lat="48.10115" lon="-4.20995">
        <ele>114.09</ele>
        <time>2021-03-04T14:45:03Z</time>
      </trkpt>
      <trkpt lat="48.10088" lon="-4.20991">
        <ele>117.85</ele>
        <time>2021-03-04T14:45:29Z</time>
      </trkpt>
      <trkpt lat="48.10068" lon="-4.20987">
        <ele>124.49</ele>
        <time>2021-03-04T14:45:55Z</time>
      </trkpt>
      <trkpt lat="48.10059" lon="-4.2098">
        <ele>126.04</ele>
        <time>2021-03-04T14:46:06Z</time>
      </trkpt>
      <trkpt lat="48.10044" lon="-4.20971">
        <ele>128.51</ele>
        <time>2021-03-04T14:46:25Z</time>
      </trkpt>
      <trkpt lat="48.10028" lon="-4.20971">
        <ele>130.59</ele>
        <time>2021-03-04T14:46:47Z</time>
      </trkpt>
      <trkpt lat="48.10025" lon="-4.20978">
        <ele>131.6</ele>
        <time>2021-03-04T14:47:08Z</time>
      </trkpt>
      <trkpt lat="48.10029" lon="-4.20975">
        <ele>132.63</ele>
        <time>2021-03-04T14:47:44Z</time>
      </trkpt>
      <trkpt lat="48.10033" lon="-4.20978">
        <ele>133.04</ele>
        <time>2021-03-04T14:48:12Z</time>
      </trkpt>
      <trkpt lat="48.1003" lon="-4.20981">
        <ele>134.52</ele>
        <time>2021-03-04T14:48:40Z</time>
      </trkpt>
      <trkpt lat="48.10032" lon="-4.21007">
        <ele>131.65</ele>
        <time>2021-03-04T14:49:00Z</time>
      </trkpt>
      <trkpt lat="48.10029" lon="-4.21024">
        <ele>128.26</ele>
        <time>2021-03-04T14:49:19Z</time>
      </trkpt>
      <trkpt lat="48.10029" lon="-4.21023">
        <ele>126.84</ele>
        <time>2021-03-04T14:49:32Z</time>
      </trkpt>
      <trkpt lat="48.10036" lon="-4.21032">
        <ele>126.42</ele>
        <time>2021-03-04T14:49:46Z</time>
      </trkpt>
      <trkpt lat="48.10037" lon="-4.21036">
        <ele>126.24</ele>
        <time>2021-03-04T14:49:50Z</time>
      </trkpt>
      <trkpt lat="48.10033" lon="-4.21039">
        <ele>126.25</ele>
        <time>2021-03-04T14:49:53Z</time>
      </trkpt>
      <trkpt lat="48.10023" lon="-4.2104">
        <ele>124.27</ele>
        <time>2021-03-04T14:50:13Z</time>
      </trkpt>
      <trkpt lat="48.10017" lon="-4.21038">
        <ele>123.64</ele>
        <time>2021-03-04T14:50:22Z</time>
      </trkpt>
      <trkpt lat="48.10031" lon="-4.21042">
        <ele>123.37</ele>
        <time>2021-03-04T14:50:31Z</time>
      </trkpt>
      <trkpt lat="48.10039" lon="-4.21051">
        <ele>123.84</ele>
        <time>2021-03-04T14:50:44Z</time>
      </trkpt>
      <trkpt lat="48.10035" lon="-4.21044">
        <ele>122.28</ele>
        <time>2021-03-04T14:51:02Z</time>
      </trkpt>
      <trkpt lat="48.10027" lon="-4.21035">
        <ele>120.02</ele>
        <time>2021-03-04T14:51:31Z</time>
      </trkpt>
      <trkpt lat="48.10026" lon="-4.21033">
        <ele>119.99</ele>
        <time>2021-03-04T14:51:32Z</time>
      </trkpt>
      <trkpt lat="48.10021" lon="-4.21022">
        <ele>119.59</ele>
        <time>2021-03-04T14:51:45Z</time>
      </trkpt>
      <trkpt lat="48.1001" lon="-4.2102">
        <ele>122.33</ele>
        <time>2021-03-04T14:52:05Z</time>
      </trkpt>
      <trkpt lat="48.09991" lon="-4.21022">
        <ele>122.91</ele>
        <time>2021-03-04T14:52:32Z</time>
      </trkpt>
      <trkpt lat="48.09983" lon="-4.21025">
        <ele>123.93</ele>
        <time>2021-03-04T14:52:46Z</time>
      </trkpt>
      <trkpt lat="48.09974" lon="-4.21027">
        <ele>125.47</ele>
        <time>2021-03-04T14:53:03Z</time>
      </trkpt>
      <trkpt lat="48.09966" lon="-4.21022">
        <ele>125.74</ele>
        <time>2021-03-04T14:53:12Z</time>
      </trkpt>
      <trkpt lat="48.09951" lon="-4.2102">
        <ele>127.1</ele>
        <time>2021-03-04T14:53:31Z</time>
      </trkpt>
      <trkpt lat="48.0994" lon="-4.21014">
        <ele>128.28</ele>
        <time>2021-03-04T14:53:52Z</time>
      </trkpt>
      <trkpt lat="48.09926" lon="-4.21007">
        <ele>130.15</ele>
        <time>2021-03-04T14:54:13Z</time>
      </trkpt>
      <trkpt lat="48.09917" lon="-4.21007">
        <ele>130.98</ele>
        <time>2021-03-04T14:54:27Z</time>
      </trkpt>
      <trkpt lat="48.09897" lon="-4.20992">
        <ele>133.2</ele>
        <time>2021-03-04T14:54:55Z</time>
      </trkpt>
      <trkpt lat="48.0988" lon="-4.20982">
        <ele>135.45</ele>
        <time>2021-03-04T14:55:15Z</time>
      </trkpt>
      <trkpt lat="48.09872" lon="-4.20973">
        <ele>136.28</ele>
        <time>2021-03-04T14:55:29Z</time>
      </trkpt>
      <trkpt lat="48.09859" lon="-4.20965">
        <ele>137.53</ele>
        <time>2021-03-04T14:55:44Z</time>
      </trkpt>
      <trkpt lat="48.0974" lon="-4.21192">
        <ele>140.45</ele>
        <time>2021-03-04T14:56:05Z</time>
      </trkpt>
      <trkpt lat="48.09843" lon="-4.20953">
        <ele>140.59</ele>
        <time>2021-03-04T14:56:06Z</time>
      </trkpt>
    </trkseg>
  </trk>
</gpx>